<?xml version="1.0" encoding="UTF-8" standalone="no" ?>
<gpx xmlns="http://www.topografix.com/GPX/1/1" xmlns:xsi="http://www.w3.org/2001/XMLSchema-instance" xsi:schemaLocation="http://www.topografix.com/GPX/1/1 http://www.topografix.com/GPX/1/1/gpx.xsd" version="1.1" creator="VisuGPX - https://www.visugpx.com">
  <metadata>
    <name>Parcours VTT Aglo 2021</name>
  </metadata>
  <trk>
    <name><![CDATA[Noir Cornillon Valbonne]]></name>
    <extensions>
      <line xmlns="http://www.topografix.com/GPX/gpx_style/0/2">
        <color>000000</color>
        <width>4</width>
      </line>
    </extensions>
    <trkseg>
      <trkpt lat="44.2182" lon="4.48571">
        <ele>88</ele>
        <time>2021-07-04T13:09:42Z</time>
      </trkpt>
      <trkpt lat="44.2182" lon="4.48571">
        <ele>88</ele>
        <time>2021-07-04T13:09:42Z</time>
      </trkpt>
      <trkpt lat="44.21854" lon="4.48556">
        <ele>86</ele>
        <time>2021-07-04T13:09:50Z</time>
      </trkpt>
      <trkpt lat="44.21878" lon="4.48596">
        <ele>87</ele>
        <time>2021-07-04T13:09:59Z</time>
      </trkpt>
      <trkpt lat="44.21859" lon="4.48736">
        <ele>92</ele>
        <time>2021-07-04T13:10:23Z</time>
      </trkpt>
      <trkpt lat="44.21879" lon="4.48807">
        <ele>97</ele>
        <time>2021-07-04T13:10:36Z</time>
      </trkpt>
      <trkpt lat="44.21907" lon="4.48814">
        <ele>99</ele>
        <time>2021-07-04T13:10:42Z</time>
      </trkpt>
      <trkpt lat="44.21916" lon="4.4881">
        <ele>100</ele>
        <time>2021-07-04T13:10:45Z</time>
      </trkpt>
      <trkpt lat="44.21972" lon="4.48769">
        <ele>104</ele>
        <time>2021-07-04T13:10:59Z</time>
      </trkpt>
      <trkpt lat="44.22029" lon="4.4874">
        <ele>107</ele>
        <time>2021-07-04T13:11:13Z</time>
      </trkpt>
      <trkpt lat="44.22059" lon="4.4873">
        <ele>109</ele>
        <time>2021-07-04T13:11:21Z</time>
      </trkpt>
      <trkpt lat="44.22173" lon="4.48705">
        <ele>114</ele>
        <time>2021-07-04T13:11:48Z</time>
      </trkpt>
      <trkpt lat="44.22195" lon="4.48706">
        <ele>115</ele>
        <time>2021-07-04T13:11:53Z</time>
      </trkpt>
      <trkpt lat="44.22208" lon="4.48709">
        <ele>116</ele>
        <time>2021-07-04T13:11:56Z</time>
      </trkpt>
      <trkpt lat="44.22223" lon="4.48717">
        <ele>119</ele>
        <time>2021-07-04T13:12:00Z</time>
      </trkpt>
      <trkpt lat="44.2225" lon="4.4876">
        <ele>128</ele>
        <time>2021-07-04T13:12:09Z</time>
      </trkpt>
      <trkpt lat="44.22266" lon="4.48767">
        <ele>131</ele>
        <time>2021-07-04T13:12:13Z</time>
      </trkpt>
      <trkpt lat="44.22288" lon="4.48772">
        <ele>133</ele>
        <time>2021-07-04T13:12:18Z</time>
      </trkpt>
      <trkpt lat="44.22308" lon="4.48768">
        <ele>135</ele>
        <time>2021-07-04T13:12:23Z</time>
      </trkpt>
      <trkpt lat="44.22324" lon="4.48757">
        <ele>135</ele>
        <time>2021-07-04T13:12:27Z</time>
      </trkpt>
      <trkpt lat="44.22331" lon="4.48747">
        <ele>134</ele>
        <time>2021-07-04T13:12:29Z</time>
      </trkpt>
      <trkpt lat="44.22345" lon="4.48714">
        <ele>135</ele>
        <time>2021-07-04T13:12:36Z</time>
      </trkpt>
      <trkpt lat="44.22382" lon="4.48641">
        <ele>140</ele>
        <time>2021-07-04T13:12:51Z</time>
      </trkpt>
      <trkpt lat="44.22395" lon="4.48609">
        <ele>142</ele>
        <time>2021-07-04T13:12:57Z</time>
      </trkpt>
      <trkpt lat="44.22387" lon="4.48691">
        <ele>148</ele>
        <time>2021-07-04T13:13:11Z</time>
      </trkpt>
      <trkpt lat="44.22364" lon="4.48778">
        <ele>148</ele>
        <time>2021-07-04T13:13:26Z</time>
      </trkpt>
      <trkpt lat="44.2236" lon="4.48802">
        <ele>148</ele>
        <time>2021-07-04T13:13:31Z</time>
      </trkpt>
      <trkpt lat="44.22409" lon="4.48851">
        <ele>162</ele>
        <time>2021-07-04T13:13:45Z</time>
      </trkpt>
      <trkpt lat="44.22414" lon="4.48858">
        <ele>162</ele>
        <time>2021-07-04T13:13:46Z</time>
      </trkpt>
      <trkpt lat="44.22423" lon="4.48881">
        <ele>161</ele>
        <time>2021-07-04T13:13:51Z</time>
      </trkpt>
      <trkpt lat="44.22429" lon="4.48889">
        <ele>160</ele>
        <time>2021-07-04T13:13:53Z</time>
      </trkpt>
      <trkpt lat="44.22435" lon="4.48905">
        <ele>159</ele>
        <time>2021-07-04T13:13:56Z</time>
      </trkpt>
      <trkpt lat="44.22439" lon="4.48909">
        <ele>159</ele>
        <time>2021-07-04T13:13:57Z</time>
      </trkpt>
      <trkpt lat="44.22462" lon="4.48898">
        <ele>160</ele>
        <time>2021-07-04T13:14:02Z</time>
      </trkpt>
      <trkpt lat="44.22474" lon="4.4896">
        <ele>160</ele>
        <time>2021-07-04T13:14:13Z</time>
      </trkpt>
      <trkpt lat="44.22467" lon="4.49041">
        <ele>166</ele>
        <time>2021-07-04T13:14:27Z</time>
      </trkpt>
      <trkpt lat="44.22438" lon="4.49065">
        <ele>172</ele>
        <time>2021-07-04T13:14:35Z</time>
      </trkpt>
      <trkpt lat="44.22442" lon="4.49066">
        <ele>172</ele>
        <time>2021-07-04T13:14:36Z</time>
      </trkpt>
      <trkpt lat="44.22441" lon="4.49081">
        <ele>174</ele>
        <time>2021-07-04T13:14:38Z</time>
      </trkpt>
      <trkpt lat="44.22447" lon="4.49107">
        <ele>175</ele>
        <time>2021-07-04T13:14:43Z</time>
      </trkpt>
      <trkpt lat="44.22447" lon="4.49122">
        <ele>176</ele>
        <time>2021-07-04T13:14:45Z</time>
      </trkpt>
      <trkpt lat="44.22438" lon="4.49147">
        <ele>178</ele>
        <time>2021-07-04T13:14:50Z</time>
      </trkpt>
      <trkpt lat="44.22404" lon="4.49217">
        <ele>183</ele>
        <time>2021-07-04T13:15:04Z</time>
      </trkpt>
      <trkpt lat="44.224" lon="4.49233">
        <ele>183</ele>
        <time>2021-07-04T13:15:07Z</time>
      </trkpt>
      <trkpt lat="44.224" lon="4.49243">
        <ele>182</ele>
        <time>2021-07-04T13:15:09Z</time>
      </trkpt>
      <trkpt lat="44.22417" lon="4.49335">
        <ele>182</ele>
        <time>2021-07-04T13:15:24Z</time>
      </trkpt>
      <trkpt lat="44.2243" lon="4.49361">
        <ele>185</ele>
        <time>2021-07-04T13:15:30Z</time>
      </trkpt>
      <trkpt lat="44.22435" lon="4.49378">
        <ele>187</ele>
        <time>2021-07-04T13:15:33Z</time>
      </trkpt>
      <trkpt lat="44.22479" lon="4.49403">
        <ele>194</ele>
        <time>2021-07-04T13:15:44Z</time>
      </trkpt>
      <trkpt lat="44.22486" lon="4.4941">
        <ele>196</ele>
        <time>2021-07-04T13:15:46Z</time>
      </trkpt>
      <trkpt lat="44.22493" lon="4.49429">
        <ele>199</ele>
        <time>2021-07-04T13:15:50Z</time>
      </trkpt>
      <trkpt lat="44.22494" lon="4.49465">
        <ele>201</ele>
        <time>2021-07-04T13:15:56Z</time>
      </trkpt>
      <trkpt lat="44.22498" lon="4.49478">
        <ele>203</ele>
        <time>2021-07-04T13:15:58Z</time>
      </trkpt>
      <trkpt lat="44.22503" lon="4.49482">
        <ele>204</ele>
        <time>2021-07-04T13:15:59Z</time>
      </trkpt>
      <trkpt lat="44.22521" lon="4.49463">
        <ele>205</ele>
        <time>2021-07-04T13:16:05Z</time>
      </trkpt>
      <trkpt lat="44.22566" lon="4.49452">
        <ele>209</ele>
        <time>2021-07-04T13:16:15Z</time>
      </trkpt>
      <trkpt lat="44.2261" lon="4.49432">
        <ele>210</ele>
        <time>2021-07-04T13:16:26Z</time>
      </trkpt>
      <trkpt lat="44.22635" lon="4.4943">
        <ele>212</ele>
        <time>2021-07-04T13:16:32Z</time>
      </trkpt>
      <trkpt lat="44.22645" lon="4.49435">
        <ele>214</ele>
        <time>2021-07-04T13:16:34Z</time>
      </trkpt>
      <trkpt lat="44.22645" lon="4.49439">
        <ele>214</ele>
        <time>2021-07-04T13:16:35Z</time>
      </trkpt>
      <trkpt lat="44.22645" lon="4.49435">
        <ele>214</ele>
        <time>2021-07-04T13:16:36Z</time>
      </trkpt>
      <trkpt lat="44.22642" lon="4.49433">
        <ele>213</ele>
        <time>2021-07-04T13:16:36Z</time>
      </trkpt>
      <trkpt lat="44.22645" lon="4.49435">
        <ele>214</ele>
        <time>2021-07-04T13:16:37Z</time>
      </trkpt>
      <trkpt lat="44.22649" lon="4.49458">
        <ele>218</ele>
        <time>2021-07-04T13:16:41Z</time>
      </trkpt>
      <trkpt lat="44.22649" lon="4.49475">
        <ele>221</ele>
        <time>2021-07-04T13:16:44Z</time>
      </trkpt>
      <trkpt lat="44.22659" lon="4.49519">
        <ele>227</ele>
        <time>2021-07-04T13:16:52Z</time>
      </trkpt>
      <trkpt lat="44.22673" lon="4.4956">
        <ele>232</ele>
        <time>2021-07-04T13:16:59Z</time>
      </trkpt>
      <trkpt lat="44.22695" lon="4.49666">
        <ele>241</ele>
        <time>2021-07-04T13:17:18Z</time>
      </trkpt>
      <trkpt lat="44.22696" lon="4.49713">
        <ele>241</ele>
        <time>2021-07-04T13:17:26Z</time>
      </trkpt>
      <trkpt lat="44.22708" lon="4.49771">
        <ele>242</ele>
        <time>2021-07-04T13:17:36Z</time>
      </trkpt>
      <trkpt lat="44.22772" lon="4.49884">
        <ele>252</ele>
        <time>2021-07-04T13:18:00Z</time>
      </trkpt>
      <trkpt lat="44.22798" lon="4.49935">
        <ele>256</ele>
        <time>2021-07-04T13:18:10Z</time>
      </trkpt>
      <trkpt lat="44.22814" lon="4.49994">
        <ele>256</ele>
        <time>2021-07-04T13:18:21Z</time>
      </trkpt>
      <trkpt lat="44.22842" lon="4.50014">
        <ele>261</ele>
        <time>2021-07-04T13:18:28Z</time>
      </trkpt>
      <trkpt lat="44.22842" lon="4.50011">
        <ele>261</ele>
        <time>2021-07-04T13:18:29Z</time>
      </trkpt>
      <trkpt lat="44.22864" lon="4.50009">
        <ele>264</ele>
        <time>2021-07-04T13:18:34Z</time>
      </trkpt>
      <trkpt lat="44.2293" lon="4.4998">
        <ele>274</ele>
        <time>2021-07-04T13:18:50Z</time>
      </trkpt>
      <trkpt lat="44.22975" lon="4.49957">
        <ele>277</ele>
        <time>2021-07-04T13:19:01Z</time>
      </trkpt>
      <trkpt lat="44.23024" lon="4.49945">
        <ele>279</ele>
        <time>2021-07-04T13:19:13Z</time>
      </trkpt>
      <trkpt lat="44.23097" lon="4.49939">
        <ele>280</ele>
        <time>2021-07-04T13:19:30Z</time>
      </trkpt>
      <trkpt lat="44.23225" lon="4.49969">
        <ele>289</ele>
        <time>2021-07-04T13:20:00Z</time>
      </trkpt>
      <trkpt lat="44.23308" lon="4.4996">
        <ele>294</ele>
        <time>2021-07-04T13:20:20Z</time>
      </trkpt>
      <trkpt lat="44.23332" lon="4.49964">
        <ele>297</ele>
        <time>2021-07-04T13:20:25Z</time>
      </trkpt>
      <trkpt lat="44.23357" lon="4.49975">
        <ele>299</ele>
        <time>2021-07-04T13:20:32Z</time>
      </trkpt>
      <trkpt lat="44.23399" lon="4.50012">
        <ele>298</ele>
        <time>2021-07-04T13:20:43Z</time>
      </trkpt>
      <trkpt lat="44.23401" lon="4.5001">
        <ele>298</ele>
        <time>2021-07-04T13:20:44Z</time>
      </trkpt>
      <trkpt lat="44.23404" lon="4.50015">
        <ele>297</ele>
        <time>2021-07-04T13:20:45Z</time>
      </trkpt>
      <trkpt lat="44.23419" lon="4.50017">
        <ele>296</ele>
        <time>2021-07-04T13:20:48Z</time>
      </trkpt>
      <trkpt lat="44.23506" lon="4.49971">
        <ele>300</ele>
        <time>2021-07-04T13:21:10Z</time>
      </trkpt>
      <trkpt lat="44.23523" lon="4.49978">
        <ele>302</ele>
        <time>2021-07-04T13:21:14Z</time>
      </trkpt>
      <trkpt lat="44.23541" lon="4.49993">
        <ele>303</ele>
        <time>2021-07-04T13:21:19Z</time>
      </trkpt>
      <trkpt lat="44.23555" lon="4.50014">
        <ele>303</ele>
        <time>2021-07-04T13:21:24Z</time>
      </trkpt>
      <trkpt lat="44.23567" lon="4.50024">
        <ele>304</ele>
        <time>2021-07-04T13:21:27Z</time>
      </trkpt>
      <trkpt lat="44.23595" lon="4.50075">
        <ele>304</ele>
        <time>2021-07-04T13:21:38Z</time>
      </trkpt>
      <trkpt lat="44.23625" lon="4.50096">
        <ele>309</ele>
        <time>2021-07-04T13:21:46Z</time>
      </trkpt>
      <trkpt lat="44.2364" lon="4.5011">
        <ele>311</ele>
        <time>2021-07-04T13:21:50Z</time>
      </trkpt>
      <trkpt lat="44.23691" lon="4.50173">
        <ele>316</ele>
        <time>2021-07-04T13:22:06Z</time>
      </trkpt>
      <trkpt lat="44.23718" lon="4.50213">
        <ele>320</ele>
        <time>2021-07-04T13:22:15Z</time>
      </trkpt>
      <trkpt lat="44.23775" lon="4.50284">
        <ele>328</ele>
        <time>2021-07-04T13:22:33Z</time>
      </trkpt>
      <trkpt lat="44.23796" lon="4.50315">
        <ele>329</ele>
        <time>2021-07-04T13:22:40Z</time>
      </trkpt>
      <trkpt lat="44.23827" lon="4.50339">
        <ele>331</ele>
        <time>2021-07-04T13:22:48Z</time>
      </trkpt>
      <trkpt lat="44.23837" lon="4.50344">
        <ele>331</ele>
        <time>2021-07-04T13:22:51Z</time>
      </trkpt>
      <trkpt lat="44.23865" lon="4.50348">
        <ele>332</ele>
        <time>2021-07-04T13:22:57Z</time>
      </trkpt>
      <trkpt lat="44.23891" lon="4.50345">
        <ele>332</ele>
        <time>2021-07-04T13:23:03Z</time>
      </trkpt>
      <trkpt lat="44.23932" lon="4.50361">
        <ele>333</ele>
        <time>2021-07-04T13:23:13Z</time>
      </trkpt>
      <trkpt lat="44.23981" lon="4.50371">
        <ele>333</ele>
        <time>2021-07-04T13:23:25Z</time>
      </trkpt>
      <trkpt lat="44.24025" lon="4.50369">
        <ele>332</ele>
        <time>2021-07-04T13:23:35Z</time>
      </trkpt>
      <trkpt lat="44.2417" lon="4.50431">
        <ele>326</ele>
        <time>2021-07-04T13:24:11Z</time>
      </trkpt>
      <trkpt lat="44.24171" lon="4.50428">
        <ele>326</ele>
        <time>2021-07-04T13:24:11Z</time>
      </trkpt>
      <trkpt lat="44.24208" lon="4.50443">
        <ele>325</ele>
        <time>2021-07-04T13:24:20Z</time>
      </trkpt>
      <trkpt lat="44.24295" lon="4.50437">
        <ele>323</ele>
        <time>2021-07-04T13:24:41Z</time>
      </trkpt>
      <trkpt lat="44.2438" lon="4.50451">
        <ele>324</ele>
        <time>2021-07-04T13:25:01Z</time>
      </trkpt>
      <trkpt lat="44.24409" lon="4.50462">
        <ele>324</ele>
        <time>2021-07-04T13:25:08Z</time>
      </trkpt>
      <trkpt lat="44.24442" lon="4.50468">
        <ele>326</ele>
        <time>2021-07-04T13:25:15Z</time>
      </trkpt>
      <trkpt lat="44.24558" lon="4.50511">
        <ele>333</ele>
        <time>2021-07-04T13:25:43Z</time>
      </trkpt>
      <trkpt lat="44.24559" lon="4.50516">
        <ele>332</ele>
        <time>2021-07-04T13:25:44Z</time>
      </trkpt>
      <trkpt lat="44.24558" lon="4.50511">
        <ele>333</ele>
        <time>2021-07-04T13:25:45Z</time>
      </trkpt>
      <trkpt lat="44.24596" lon="4.50516">
        <ele>335</ele>
        <time>2021-07-04T13:25:54Z</time>
      </trkpt>
      <trkpt lat="44.24634" lon="4.50511">
        <ele>337</ele>
        <time>2021-07-04T13:26:03Z</time>
      </trkpt>
      <trkpt lat="44.247" lon="4.50513">
        <ele>340</ele>
        <time>2021-07-04T13:26:18Z</time>
      </trkpt>
      <trkpt lat="44.24789" lon="4.50536">
        <ele>337</ele>
        <time>2021-07-04T13:26:39Z</time>
      </trkpt>
      <trkpt lat="44.24837" lon="4.50537">
        <ele>335</ele>
        <time>2021-07-04T13:26:51Z</time>
      </trkpt>
      <trkpt lat="44.24925" lon="4.50531">
        <ele>331</ele>
        <time>2021-07-04T13:27:11Z</time>
      </trkpt>
      <trkpt lat="44.24955" lon="4.50526">
        <ele>329</ele>
        <time>2021-07-04T13:27:18Z</time>
      </trkpt>
      <trkpt lat="44.25036" lon="4.50485">
        <ele>325</ele>
        <time>2021-07-04T13:27:38Z</time>
      </trkpt>
      <trkpt lat="44.25048" lon="4.50443">
        <ele>328</ele>
        <time>2021-07-04T13:27:46Z</time>
      </trkpt>
      <trkpt lat="44.25073" lon="4.50426">
        <ele>324</ele>
        <time>2021-07-04T13:27:52Z</time>
      </trkpt>
      <trkpt lat="44.25085" lon="4.50423">
        <ele>322</ele>
        <time>2021-07-04T13:27:55Z</time>
      </trkpt>
      <trkpt lat="44.25091" lon="4.50424">
        <ele>322</ele>
        <time>2021-07-04T13:27:57Z</time>
      </trkpt>
      <trkpt lat="44.25104" lon="4.50471">
        <ele>315</ele>
        <time>2021-07-04T13:28:05Z</time>
      </trkpt>
      <trkpt lat="44.25153" lon="4.50477">
        <ele>312</ele>
        <time>2021-07-04T13:28:17Z</time>
      </trkpt>
      <trkpt lat="44.25152" lon="4.50483">
        <ele>311</ele>
        <time>2021-07-04T13:28:18Z</time>
      </trkpt>
      <trkpt lat="44.2516" lon="4.50486">
        <ele>309</ele>
        <time>2021-07-04T13:28:20Z</time>
      </trkpt>
      <trkpt lat="44.25188" lon="4.50534">
        <ele>303</ele>
        <time>2021-07-04T13:28:30Z</time>
      </trkpt>
      <trkpt lat="44.25197" lon="4.50557">
        <ele>300</ele>
        <time>2021-07-04T13:28:34Z</time>
      </trkpt>
      <trkpt lat="44.25228" lon="4.5059">
        <ele>296</ele>
        <time>2021-07-04T13:28:43Z</time>
      </trkpt>
      <trkpt lat="44.25235" lon="4.50607">
        <ele>294</ele>
        <time>2021-07-04T13:28:47Z</time>
      </trkpt>
      <trkpt lat="44.25247" lon="4.50616">
        <ele>293</ele>
        <time>2021-07-04T13:28:50Z</time>
      </trkpt>
      <trkpt lat="44.25344" lon="4.50624">
        <ele>296</ele>
        <time>2021-07-04T13:29:13Z</time>
      </trkpt>
      <trkpt lat="44.25371" lon="4.50632">
        <ele>296</ele>
        <time>2021-07-04T13:29:19Z</time>
      </trkpt>
      <trkpt lat="44.25381" lon="4.50632">
        <ele>296</ele>
        <time>2021-07-04T13:29:21Z</time>
      </trkpt>
      <trkpt lat="44.25396" lon="4.50622">
        <ele>300</ele>
        <time>2021-07-04T13:29:25Z</time>
      </trkpt>
      <trkpt lat="44.25412" lon="4.50619">
        <ele>301</ele>
        <time>2021-07-04T13:29:29Z</time>
      </trkpt>
      <trkpt lat="44.25429" lon="4.50626">
        <ele>302</ele>
        <time>2021-07-04T13:29:33Z</time>
      </trkpt>
      <trkpt lat="44.25444" lon="4.50639">
        <ele>300</ele>
        <time>2021-07-04T13:29:37Z</time>
      </trkpt>
      <trkpt lat="44.25453" lon="4.50657">
        <ele>297</ele>
        <time>2021-07-04T13:29:41Z</time>
      </trkpt>
      <trkpt lat="44.25456" lon="4.50679">
        <ele>292</ele>
        <time>2021-07-04T13:29:45Z</time>
      </trkpt>
      <trkpt lat="44.2547" lon="4.50691">
        <ele>291</ele>
        <time>2021-07-04T13:29:49Z</time>
      </trkpt>
      <trkpt lat="44.25495" lon="4.50697">
        <ele>292</ele>
        <time>2021-07-04T13:29:54Z</time>
      </trkpt>
      <trkpt lat="44.25525" lon="4.50714">
        <ele>290</ele>
        <time>2021-07-04T13:30:02Z</time>
      </trkpt>
      <trkpt lat="44.25539" lon="4.50719">
        <ele>289</ele>
        <time>2021-07-04T13:30:05Z</time>
      </trkpt>
      <trkpt lat="44.25573" lon="4.50708">
        <ele>295</ele>
        <time>2021-07-04T13:30:14Z</time>
      </trkpt>
      <trkpt lat="44.25589" lon="4.50695">
        <ele>299</ele>
        <time>2021-07-04T13:30:18Z</time>
      </trkpt>
      <trkpt lat="44.25598" lon="4.50683">
        <ele>301</ele>
        <time>2021-07-04T13:30:21Z</time>
      </trkpt>
      <trkpt lat="44.25627" lon="4.50664">
        <ele>303</ele>
        <time>2021-07-04T13:30:28Z</time>
      </trkpt>
      <trkpt lat="44.25706" lon="4.50621">
        <ele>304</ele>
        <time>2021-07-04T13:30:48Z</time>
      </trkpt>
      <trkpt lat="44.25785" lon="4.50573">
        <ele>303</ele>
        <time>2021-07-04T13:31:08Z</time>
      </trkpt>
      <trkpt lat="44.25882" lon="4.50509">
        <ele>308</ele>
        <time>2021-07-04T13:31:33Z</time>
      </trkpt>
      <trkpt lat="44.25919" lon="4.50497">
        <ele>307</ele>
        <time>2021-07-04T13:31:42Z</time>
      </trkpt>
      <trkpt lat="44.25976" lon="4.50471">
        <ele>307</ele>
        <time>2021-07-04T13:31:56Z</time>
      </trkpt>
      <trkpt lat="44.26008" lon="4.50459">
        <ele>307</ele>
        <time>2021-07-04T13:32:04Z</time>
      </trkpt>
      <trkpt lat="44.26069" lon="4.50445">
        <ele>300</ele>
        <time>2021-07-04T13:32:18Z</time>
      </trkpt>
      <trkpt lat="44.2608" lon="4.5044">
        <ele>299</ele>
        <time>2021-07-04T13:32:21Z</time>
      </trkpt>
      <trkpt lat="44.2609" lon="4.50432">
        <ele>299</ele>
        <time>2021-07-04T13:32:24Z</time>
      </trkpt>
      <trkpt lat="44.26095" lon="4.50412">
        <ele>302</ele>
        <time>2021-07-04T13:32:27Z</time>
      </trkpt>
      <trkpt lat="44.26052" lon="4.50317">
        <ele>309</ele>
        <time>2021-07-04T13:32:46Z</time>
      </trkpt>
      <trkpt lat="44.2601" lon="4.50208">
        <ele>310</ele>
        <time>2021-07-04T13:33:07Z</time>
      </trkpt>
      <trkpt lat="44.25992" lon="4.5019">
        <ele>311</ele>
        <time>2021-07-04T13:33:12Z</time>
      </trkpt>
      <trkpt lat="44.25972" lon="4.50184">
        <ele>312</ele>
        <time>2021-07-04T13:33:17Z</time>
      </trkpt>
      <trkpt lat="44.25961" lon="4.50184">
        <ele>313</ele>
        <time>2021-07-04T13:33:19Z</time>
      </trkpt>
      <trkpt lat="44.2595" lon="4.50179">
        <ele>314</ele>
        <time>2021-07-04T13:33:22Z</time>
      </trkpt>
      <trkpt lat="44.25948" lon="4.50172">
        <ele>313</ele>
        <time>2021-07-04T13:33:23Z</time>
      </trkpt>
      <trkpt lat="44.25948" lon="4.50162">
        <ele>313</ele>
        <time>2021-07-04T13:33:25Z</time>
      </trkpt>
      <trkpt lat="44.25955" lon="4.50153">
        <ele>313</ele>
        <time>2021-07-04T13:33:27Z</time>
      </trkpt>
      <trkpt lat="44.26048" lon="4.50102">
        <ele>304</ele>
        <time>2021-07-04T13:33:50Z</time>
      </trkpt>
      <trkpt lat="44.26066" lon="4.50086">
        <ele>304</ele>
        <time>2021-07-04T13:33:55Z</time>
      </trkpt>
      <trkpt lat="44.26192" lon="4.50119">
        <ele>295</ele>
        <time>2021-07-04T13:34:25Z</time>
      </trkpt>
      <trkpt lat="44.26327" lon="4.50142">
        <ele>292</ele>
        <time>2021-07-04T13:34:57Z</time>
      </trkpt>
      <trkpt lat="44.2637" lon="4.50156">
        <ele>291</ele>
        <time>2021-07-04T13:35:07Z</time>
      </trkpt>
      <trkpt lat="44.26438" lon="4.50167">
        <ele>289</ele>
        <time>2021-07-04T13:35:23Z</time>
      </trkpt>
      <trkpt lat="44.26532" lon="4.50195">
        <ele>283</ele>
        <time>2021-07-04T13:35:46Z</time>
      </trkpt>
      <trkpt lat="44.26724" lon="4.50278">
        <ele>293</ele>
        <time>2021-07-04T13:36:33Z</time>
      </trkpt>
      <trkpt lat="44.26724" lon="4.50282">
        <ele>293</ele>
        <time>2021-07-04T13:36:33Z</time>
      </trkpt>
      <trkpt lat="44.26744" lon="4.50289">
        <ele>294</ele>
        <time>2021-07-04T13:36:38Z</time>
      </trkpt>
      <trkpt lat="44.26744" lon="4.50305">
        <ele>294</ele>
        <time>2021-07-04T13:36:41Z</time>
      </trkpt>
      <trkpt lat="44.26759" lon="4.50328">
        <ele>295</ele>
        <time>2021-07-04T13:36:46Z</time>
      </trkpt>
      <trkpt lat="44.26803" lon="4.50384">
        <ele>293</ele>
        <time>2021-07-04T13:37:00Z</time>
      </trkpt>
      <trkpt lat="44.26832" lon="4.50411">
        <ele>294</ele>
        <time>2021-07-04T13:37:08Z</time>
      </trkpt>
      <trkpt lat="44.26874" lon="4.50459">
        <ele>289</ele>
        <time>2021-07-04T13:37:21Z</time>
      </trkpt>
      <trkpt lat="44.2689" lon="4.50469">
        <ele>288</ele>
        <time>2021-07-04T13:37:25Z</time>
      </trkpt>
      <trkpt lat="44.26916" lon="4.50479">
        <ele>288</ele>
        <time>2021-07-04T13:37:31Z</time>
      </trkpt>
      <trkpt lat="44.26946" lon="4.50498">
        <ele>287</ele>
        <time>2021-07-04T13:37:39Z</time>
      </trkpt>
      <trkpt lat="44.26959" lon="4.50497">
        <ele>287</ele>
        <time>2021-07-04T13:37:42Z</time>
      </trkpt>
      <trkpt lat="44.26974" lon="4.50503">
        <ele>286</ele>
        <time>2021-07-04T13:37:46Z</time>
      </trkpt>
      <trkpt lat="44.26987" lon="4.50504">
        <ele>286</ele>
        <time>2021-07-04T13:37:49Z</time>
      </trkpt>
      <trkpt lat="44.27002" lon="4.50496">
        <ele>286</ele>
        <time>2021-07-04T13:37:52Z</time>
      </trkpt>
      <trkpt lat="44.27012" lon="4.50494">
        <ele>286</ele>
        <time>2021-07-04T13:37:55Z</time>
      </trkpt>
      <trkpt lat="44.27045" lon="4.50498">
        <ele>283</ele>
        <time>2021-07-04T13:38:03Z</time>
      </trkpt>
      <trkpt lat="44.27075" lon="4.50507">
        <ele>280</ele>
        <time>2021-07-04T13:38:10Z</time>
      </trkpt>
      <trkpt lat="44.27106" lon="4.50506">
        <ele>278</ele>
        <time>2021-07-04T13:38:17Z</time>
      </trkpt>
      <trkpt lat="44.27126" lon="4.50513">
        <ele>276</ele>
        <time>2021-07-04T13:38:22Z</time>
      </trkpt>
      <trkpt lat="44.27152" lon="4.5051">
        <ele>275</ele>
        <time>2021-07-04T13:38:28Z</time>
      </trkpt>
      <trkpt lat="44.27157" lon="4.50504">
        <ele>276</ele>
        <time>2021-07-04T13:38:29Z</time>
      </trkpt>
      <trkpt lat="44.27136" lon="4.50528">
        <ele>273</ele>
        <time>2021-07-04T13:38:36Z</time>
      </trkpt>
      <trkpt lat="44.27096" lon="4.50549">
        <ele>272</ele>
        <time>2021-07-04T13:38:46Z</time>
      </trkpt>
      <trkpt lat="44.27072" lon="4.50555">
        <ele>272</ele>
        <time>2021-07-04T13:38:51Z</time>
      </trkpt>
      <trkpt lat="44.27059" lon="4.50564">
        <ele>272</ele>
        <time>2021-07-04T13:38:55Z</time>
      </trkpt>
      <trkpt lat="44.27011" lon="4.50614">
        <ele>268</ele>
        <time>2021-07-04T13:39:09Z</time>
      </trkpt>
      <trkpt lat="44.26999" lon="4.50667">
        <ele>260</ele>
        <time>2021-07-04T13:39:18Z</time>
      </trkpt>
      <trkpt lat="44.26993" lon="4.50675">
        <ele>258</ele>
        <time>2021-07-04T13:39:20Z</time>
      </trkpt>
      <trkpt lat="44.26979" lon="4.50684">
        <ele>256</ele>
        <time>2021-07-04T13:39:24Z</time>
      </trkpt>
      <trkpt lat="44.26952" lon="4.50708">
        <ele>251</ele>
        <time>2021-07-04T13:39:31Z</time>
      </trkpt>
      <trkpt lat="44.26906" lon="4.50705">
        <ele>251</ele>
        <time>2021-07-04T13:39:42Z</time>
      </trkpt>
      <trkpt lat="44.26883" lon="4.50708">
        <ele>248</ele>
        <time>2021-07-04T13:39:47Z</time>
      </trkpt>
      <trkpt lat="44.26841" lon="4.50735">
        <ele>240</ele>
        <time>2021-07-04T13:39:58Z</time>
      </trkpt>
      <trkpt lat="44.26816" lon="4.50735">
        <ele>239</ele>
        <time>2021-07-04T13:40:04Z</time>
      </trkpt>
      <trkpt lat="44.2679" lon="4.50747">
        <ele>234</ele>
        <time>2021-07-04T13:40:10Z</time>
      </trkpt>
      <trkpt lat="44.26764" lon="4.50747">
        <ele>232</ele>
        <time>2021-07-04T13:40:16Z</time>
      </trkpt>
      <trkpt lat="44.26753" lon="4.50741">
        <ele>233</ele>
        <time>2021-07-04T13:40:19Z</time>
      </trkpt>
      <trkpt lat="44.26735" lon="4.50743">
        <ele>232</ele>
        <time>2021-07-04T13:40:23Z</time>
      </trkpt>
      <trkpt lat="44.26718" lon="4.50764">
        <ele>229</ele>
        <time>2021-07-04T13:40:29Z</time>
      </trkpt>
      <trkpt lat="44.26705" lon="4.50813">
        <ele>226</ele>
        <time>2021-07-04T13:40:37Z</time>
      </trkpt>
      <trkpt lat="44.26701" lon="4.50864">
        <ele>225</ele>
        <time>2021-07-04T13:40:46Z</time>
      </trkpt>
      <trkpt lat="44.26691" lon="4.5091">
        <ele>226</ele>
        <time>2021-07-04T13:40:54Z</time>
      </trkpt>
      <trkpt lat="44.26696" lon="4.50914">
        <ele>225</ele>
        <time>2021-07-04T13:40:55Z</time>
      </trkpt>
      <trkpt lat="44.26697" lon="4.50923">
        <ele>225</ele>
        <time>2021-07-04T13:40:57Z</time>
      </trkpt>
      <trkpt lat="44.26695" lon="4.50935">
        <ele>225</ele>
        <time>2021-07-04T13:40:59Z</time>
      </trkpt>
      <trkpt lat="44.26696" lon="4.50963">
        <ele>224</ele>
        <time>2021-07-04T13:41:04Z</time>
      </trkpt>
      <trkpt lat="44.26699" lon="4.50972">
        <ele>224</ele>
        <time>2021-07-04T13:41:05Z</time>
      </trkpt>
      <trkpt lat="44.26749" lon="4.50999">
        <ele>215</ele>
        <time>2021-07-04T13:41:18Z</time>
      </trkpt>
      <trkpt lat="44.26751" lon="4.50998">
        <ele>215</ele>
        <time>2021-07-04T13:41:18Z</time>
      </trkpt>
      <trkpt lat="44.26753" lon="4.51003">
        <ele>215</ele>
        <time>2021-07-04T13:41:19Z</time>
      </trkpt>
      <trkpt lat="44.26759" lon="4.51067">
        <ele>216</ele>
        <time>2021-07-04T13:41:30Z</time>
      </trkpt>
      <trkpt lat="44.26769" lon="4.51102">
        <ele>216</ele>
        <time>2021-07-04T13:41:36Z</time>
      </trkpt>
      <trkpt lat="44.26769" lon="4.51124">
        <ele>216</ele>
        <time>2021-07-04T13:41:40Z</time>
      </trkpt>
      <trkpt lat="44.26764" lon="4.51157">
        <ele>218</ele>
        <time>2021-07-04T13:41:46Z</time>
      </trkpt>
      <trkpt lat="44.26765" lon="4.51184">
        <ele>219</ele>
        <time>2021-07-04T13:41:50Z</time>
      </trkpt>
      <trkpt lat="44.26776" lon="4.51217">
        <ele>220</ele>
        <time>2021-07-04T13:41:56Z</time>
      </trkpt>
      <trkpt lat="44.26801" lon="4.51251">
        <ele>222</ele>
        <time>2021-07-04T13:42:04Z</time>
      </trkpt>
      <trkpt lat="44.26822" lon="4.51301">
        <ele>225</ele>
        <time>2021-07-04T13:42:14Z</time>
      </trkpt>
      <trkpt lat="44.26828" lon="4.51306">
        <ele>226</ele>
        <time>2021-07-04T13:42:16Z</time>
      </trkpt>
      <trkpt lat="44.26805" lon="4.51336">
        <ele>228</ele>
        <time>2021-07-04T13:42:23Z</time>
      </trkpt>
      <trkpt lat="44.26805" lon="4.51329">
        <ele>228</ele>
        <time>2021-07-04T13:42:24Z</time>
      </trkpt>
      <trkpt lat="44.26812" lon="4.51328">
        <ele>228</ele>
        <time>2021-07-04T13:42:26Z</time>
      </trkpt>
      <trkpt lat="44.26812" lon="4.51348">
        <ele>227</ele>
        <time>2021-07-04T13:42:29Z</time>
      </trkpt>
      <trkpt lat="44.26808" lon="4.51368">
        <ele>226</ele>
        <time>2021-07-04T13:42:33Z</time>
      </trkpt>
      <trkpt lat="44.26817" lon="4.51412">
        <ele>223</ele>
        <time>2021-07-04T13:42:40Z</time>
      </trkpt>
      <trkpt lat="44.26786" lon="4.51422">
        <ele>223</ele>
        <time>2021-07-04T13:42:48Z</time>
      </trkpt>
      <trkpt lat="44.26767" lon="4.51402">
        <ele>225</ele>
        <time>2021-07-04T13:42:53Z</time>
      </trkpt>
      <trkpt lat="44.26755" lon="4.51399">
        <ele>225</ele>
        <time>2021-07-04T13:42:56Z</time>
      </trkpt>
      <trkpt lat="44.26746" lon="4.514">
        <ele>225</ele>
        <time>2021-07-04T13:42:58Z</time>
      </trkpt>
      <trkpt lat="44.26693" lon="4.51427">
        <ele>228</ele>
        <time>2021-07-04T13:43:11Z</time>
      </trkpt>
      <trkpt lat="44.26658" lon="4.51485">
        <ele>224</ele>
        <time>2021-07-04T13:43:24Z</time>
      </trkpt>
      <trkpt lat="44.26662" lon="4.51516">
        <ele>221</ele>
        <time>2021-07-04T13:43:29Z</time>
      </trkpt>
      <trkpt lat="44.26656" lon="4.51557">
        <ele>214</ele>
        <time>2021-07-04T13:43:36Z</time>
      </trkpt>
      <trkpt lat="44.26634" lon="4.51549">
        <ele>212</ele>
        <time>2021-07-04T13:43:42Z</time>
      </trkpt>
      <trkpt lat="44.26599" lon="4.51524">
        <ele>209</ele>
        <time>2021-07-04T13:43:51Z</time>
      </trkpt>
      <trkpt lat="44.26593" lon="4.5151">
        <ele>210</ele>
        <time>2021-07-04T13:43:54Z</time>
      </trkpt>
      <trkpt lat="44.26584" lon="4.515">
        <ele>209</ele>
        <time>2021-07-04T13:43:56Z</time>
      </trkpt>
      <trkpt lat="44.26575" lon="4.51497">
        <ele>208</ele>
        <time>2021-07-04T13:43:58Z</time>
      </trkpt>
      <trkpt lat="44.26562" lon="4.51499">
        <ele>205</ele>
        <time>2021-07-04T13:44:02Z</time>
      </trkpt>
      <trkpt lat="44.26553" lon="4.51504">
        <ele>202</ele>
        <time>2021-07-04T13:44:04Z</time>
      </trkpt>
      <trkpt lat="44.2654" lon="4.51507">
        <ele>199</ele>
        <time>2021-07-04T13:44:07Z</time>
      </trkpt>
      <trkpt lat="44.26536" lon="4.51513">
        <ele>197</ele>
        <time>2021-07-04T13:44:08Z</time>
      </trkpt>
      <trkpt lat="44.2651" lon="4.51523">
        <ele>191</ele>
        <time>2021-07-04T13:44:15Z</time>
      </trkpt>
      <trkpt lat="44.26499" lon="4.51535">
        <ele>188</ele>
        <time>2021-07-04T13:44:18Z</time>
      </trkpt>
      <trkpt lat="44.26451" lon="4.51569">
        <ele>180</ele>
        <time>2021-07-04T13:44:30Z</time>
      </trkpt>
      <trkpt lat="44.26427" lon="4.51574">
        <ele>177</ele>
        <time>2021-07-04T13:44:36Z</time>
      </trkpt>
      <trkpt lat="44.26366" lon="4.51599">
        <ele>170</ele>
        <time>2021-07-04T13:44:51Z</time>
      </trkpt>
      <trkpt lat="44.26353" lon="4.51617">
        <ele>167</ele>
        <time>2021-07-04T13:44:55Z</time>
      </trkpt>
      <trkpt lat="44.2635" lon="4.51641">
        <ele>166</ele>
        <time>2021-07-04T13:44:59Z</time>
      </trkpt>
      <trkpt lat="44.26318" lon="4.51713">
        <ele>161</ele>
        <time>2021-07-04T13:45:13Z</time>
      </trkpt>
      <trkpt lat="44.26318" lon="4.51741">
        <ele>161</ele>
        <time>2021-07-04T13:45:18Z</time>
      </trkpt>
      <trkpt lat="44.26326" lon="4.51775">
        <ele>163</ele>
        <time>2021-07-04T13:45:24Z</time>
      </trkpt>
      <trkpt lat="44.26323" lon="4.5179">
        <ele>164</ele>
        <time>2021-07-04T13:45:27Z</time>
      </trkpt>
      <trkpt lat="44.26313" lon="4.51791">
        <ele>164</ele>
        <time>2021-07-04T13:45:29Z</time>
      </trkpt>
      <trkpt lat="44.26303" lon="4.51787">
        <ele>164</ele>
        <time>2021-07-04T13:45:31Z</time>
      </trkpt>
      <trkpt lat="44.26296" lon="4.51788">
        <ele>164</ele>
        <time>2021-07-04T13:45:33Z</time>
      </trkpt>
      <trkpt lat="44.26275" lon="4.51812">
        <ele>166</ele>
        <time>2021-07-04T13:45:39Z</time>
      </trkpt>
      <trkpt lat="44.26267" lon="4.51858">
        <ele>170</ele>
        <time>2021-07-04T13:45:47Z</time>
      </trkpt>
      <trkpt lat="44.26244" lon="4.51906">
        <ele>175</ele>
        <time>2021-07-04T13:45:57Z</time>
      </trkpt>
      <trkpt lat="44.26224" lon="4.51939">
        <ele>179</ele>
        <time>2021-07-04T13:46:04Z</time>
      </trkpt>
      <trkpt lat="44.26219" lon="4.51955">
        <ele>181</ele>
        <time>2021-07-04T13:46:07Z</time>
      </trkpt>
      <trkpt lat="44.26218" lon="4.51968">
        <ele>183</ele>
        <time>2021-07-04T13:46:09Z</time>
      </trkpt>
      <trkpt lat="44.262" lon="4.52051">
        <ele>198</ele>
        <time>2021-07-04T13:46:24Z</time>
      </trkpt>
      <trkpt lat="44.26193" lon="4.52071">
        <ele>202</ele>
        <time>2021-07-04T13:46:28Z</time>
      </trkpt>
      <trkpt lat="44.26166" lon="4.52102">
        <ele>207</ele>
        <time>2021-07-04T13:46:36Z</time>
      </trkpt>
      <trkpt lat="44.26151" lon="4.5213">
        <ele>211</ele>
        <time>2021-07-04T13:46:42Z</time>
      </trkpt>
      <trkpt lat="44.26138" lon="4.52162">
        <ele>216</ele>
        <time>2021-07-04T13:46:48Z</time>
      </trkpt>
      <trkpt lat="44.26129" lon="4.52208">
        <ele>222</ele>
        <time>2021-07-04T13:46:56Z</time>
      </trkpt>
      <trkpt lat="44.26126" lon="4.52238">
        <ele>227</ele>
        <time>2021-07-04T13:47:01Z</time>
      </trkpt>
      <trkpt lat="44.26137" lon="4.52282">
        <ele>234</ele>
        <time>2021-07-04T13:47:09Z</time>
      </trkpt>
      <trkpt lat="44.26133" lon="4.52303">
        <ele>236</ele>
        <time>2021-07-04T13:47:12Z</time>
      </trkpt>
      <trkpt lat="44.26122" lon="4.52335">
        <ele>239</ele>
        <time>2021-07-04T13:47:18Z</time>
      </trkpt>
      <trkpt lat="44.26129" lon="4.52331">
        <ele>239</ele>
        <time>2021-07-04T13:47:20Z</time>
      </trkpt>
      <trkpt lat="44.26122" lon="4.52335">
        <ele>239</ele>
        <time>2021-07-04T13:47:22Z</time>
      </trkpt>
      <trkpt lat="44.26106" lon="4.52356">
        <ele>241</ele>
        <time>2021-07-04T13:47:27Z</time>
      </trkpt>
      <trkpt lat="44.26089" lon="4.52368">
        <ele>243</ele>
        <time>2021-07-04T13:47:31Z</time>
      </trkpt>
      <trkpt lat="44.26083" lon="4.52387">
        <ele>245</ele>
        <time>2021-07-04T13:47:35Z</time>
      </trkpt>
      <trkpt lat="44.26089" lon="4.5241">
        <ele>248</ele>
        <time>2021-07-04T13:47:39Z</time>
      </trkpt>
      <trkpt lat="44.26054" lon="4.52478">
        <ele>250</ele>
        <time>2021-07-04T13:47:53Z</time>
      </trkpt>
      <trkpt lat="44.26062" lon="4.52479">
        <ele>250</ele>
        <time>2021-07-04T13:47:55Z</time>
      </trkpt>
      <trkpt lat="44.26055" lon="4.52528">
        <ele>251</ele>
        <time>2021-07-04T13:48:03Z</time>
      </trkpt>
      <trkpt lat="44.26043" lon="4.52527">
        <ele>252</ele>
        <time>2021-07-04T13:48:06Z</time>
      </trkpt>
      <trkpt lat="44.26041" lon="4.5254">
        <ele>252</ele>
        <time>2021-07-04T13:48:08Z</time>
      </trkpt>
      <trkpt lat="44.26033" lon="4.52546">
        <ele>252</ele>
        <time>2021-07-04T13:48:10Z</time>
      </trkpt>
      <trkpt lat="44.26017" lon="4.52544">
        <ele>253</ele>
        <time>2021-07-04T13:48:14Z</time>
      </trkpt>
      <trkpt lat="44.25998" lon="4.5255">
        <ele>254</ele>
        <time>2021-07-04T13:48:19Z</time>
      </trkpt>
      <trkpt lat="44.25995" lon="4.52545">
        <ele>254</ele>
        <time>2021-07-04T13:48:20Z</time>
      </trkpt>
      <trkpt lat="44.2598" lon="4.52558">
        <ele>254</ele>
        <time>2021-07-04T13:48:24Z</time>
      </trkpt>
      <trkpt lat="44.25955" lon="4.52588">
        <ele>256</ele>
        <time>2021-07-04T13:48:31Z</time>
      </trkpt>
      <trkpt lat="44.25947" lon="4.52593">
        <ele>256</ele>
        <time>2021-07-04T13:48:33Z</time>
      </trkpt>
      <trkpt lat="44.25892" lon="4.52611">
        <ele>257</ele>
        <time>2021-07-04T13:48:47Z</time>
      </trkpt>
      <trkpt lat="44.25886" lon="4.52608">
        <ele>257</ele>
        <time>2021-07-04T13:48:48Z</time>
      </trkpt>
      <trkpt lat="44.2587" lon="4.52609">
        <ele>257</ele>
        <time>2021-07-04T13:48:52Z</time>
      </trkpt>
      <trkpt lat="44.25845" lon="4.52605">
        <ele>257</ele>
        <time>2021-07-04T13:48:58Z</time>
      </trkpt>
      <trkpt lat="44.25806" lon="4.52594">
        <ele>259</ele>
        <time>2021-07-04T13:49:07Z</time>
      </trkpt>
      <trkpt lat="44.2578" lon="4.52583">
        <ele>261</ele>
        <time>2021-07-04T13:49:13Z</time>
      </trkpt>
      <trkpt lat="44.25725" lon="4.52577">
        <ele>265</ele>
        <time>2021-07-04T13:49:26Z</time>
      </trkpt>
      <trkpt lat="44.25695" lon="4.52568">
        <ele>266</ele>
        <time>2021-07-04T13:49:33Z</time>
      </trkpt>
      <trkpt lat="44.25656" lon="4.52552">
        <ele>267</ele>
        <time>2021-07-04T13:49:43Z</time>
      </trkpt>
      <trkpt lat="44.25643" lon="4.52552">
        <ele>267</ele>
        <time>2021-07-04T13:49:46Z</time>
      </trkpt>
      <trkpt lat="44.25639" lon="4.52548">
        <ele>267</ele>
        <time>2021-07-04T13:49:47Z</time>
      </trkpt>
      <trkpt lat="44.25643" lon="4.52552">
        <ele>267</ele>
        <time>2021-07-04T13:49:48Z</time>
      </trkpt>
      <trkpt lat="44.25634" lon="4.52552">
        <ele>268</ele>
        <time>2021-07-04T13:49:50Z</time>
      </trkpt>
      <trkpt lat="44.2559" lon="4.52567">
        <ele>272</ele>
        <time>2021-07-04T13:50:01Z</time>
      </trkpt>
      <trkpt lat="44.25539" lon="4.52602">
        <ele>280</ele>
        <time>2021-07-04T13:50:14Z</time>
      </trkpt>
      <trkpt lat="44.25508" lon="4.52605">
        <ele>283</ele>
        <time>2021-07-04T13:50:21Z</time>
      </trkpt>
      <trkpt lat="44.25485" lon="4.52613">
        <ele>284</ele>
        <time>2021-07-04T13:50:27Z</time>
      </trkpt>
      <trkpt lat="44.25449" lon="4.52616">
        <ele>286</ele>
        <time>2021-07-04T13:50:35Z</time>
      </trkpt>
      <trkpt lat="44.25396" lon="4.52608">
        <ele>289</ele>
        <time>2021-07-04T13:50:48Z</time>
      </trkpt>
      <trkpt lat="44.25372" lon="4.52613">
        <ele>293</ele>
        <time>2021-07-04T13:50:54Z</time>
      </trkpt>
      <trkpt lat="44.25353" lon="4.52628">
        <ele>296</ele>
        <time>2021-07-04T13:50:59Z</time>
      </trkpt>
      <trkpt lat="44.25332" lon="4.52683">
        <ele>302</ele>
        <time>2021-07-04T13:51:09Z</time>
      </trkpt>
      <trkpt lat="44.25292" lon="4.52749">
        <ele>304</ele>
        <time>2021-07-04T13:51:24Z</time>
      </trkpt>
      <trkpt lat="44.25261" lon="4.52815">
        <ele>306</ele>
        <time>2021-07-04T13:51:37Z</time>
      </trkpt>
      <trkpt lat="44.25239" lon="4.52842">
        <ele>307</ele>
        <time>2021-07-04T13:51:44Z</time>
      </trkpt>
      <trkpt lat="44.25144" lon="4.52915">
        <ele>318</ele>
        <time>2021-07-04T13:52:09Z</time>
      </trkpt>
      <trkpt lat="44.25087" lon="4.5298">
        <ele>318</ele>
        <time>2021-07-04T13:52:26Z</time>
      </trkpt>
      <trkpt lat="44.25061" lon="4.52998">
        <ele>319</ele>
        <time>2021-07-04T13:52:33Z</time>
      </trkpt>
      <trkpt lat="44.24976" lon="4.53099">
        <ele>320</ele>
        <time>2021-07-04T13:52:59Z</time>
      </trkpt>
      <trkpt lat="44.24926" lon="4.53185">
        <ele>324</ele>
        <time>2021-07-04T13:53:17Z</time>
      </trkpt>
      <trkpt lat="44.24915" lon="4.53209">
        <ele>326</ele>
        <time>2021-07-04T13:53:22Z</time>
      </trkpt>
      <trkpt lat="44.24914" lon="4.53201">
        <ele>326</ele>
        <time>2021-07-04T13:53:24Z</time>
      </trkpt>
      <trkpt lat="44.24912" lon="4.53242">
        <ele>328</ele>
        <time>2021-07-04T13:53:30Z</time>
      </trkpt>
      <trkpt lat="44.24918" lon="4.53276">
        <ele>328</ele>
        <time>2021-07-04T13:53:36Z</time>
      </trkpt>
      <trkpt lat="44.24921" lon="4.53364">
        <ele>331</ele>
        <time>2021-07-04T13:53:51Z</time>
      </trkpt>
      <trkpt lat="44.24932" lon="4.53383">
        <ele>331</ele>
        <time>2021-07-04T13:53:55Z</time>
      </trkpt>
      <trkpt lat="44.24936" lon="4.53412">
        <ele>332</ele>
        <time>2021-07-04T13:54:00Z</time>
      </trkpt>
      <trkpt lat="44.24933" lon="4.53477">
        <ele>331</ele>
        <time>2021-07-04T13:54:11Z</time>
      </trkpt>
      <trkpt lat="44.24941" lon="4.53506">
        <ele>330</ele>
        <time>2021-07-04T13:54:16Z</time>
      </trkpt>
      <trkpt lat="44.24942" lon="4.53529">
        <ele>329</ele>
        <time>2021-07-04T13:54:20Z</time>
      </trkpt>
      <trkpt lat="44.24937" lon="4.53554">
        <ele>329</ele>
        <time>2021-07-04T13:54:24Z</time>
      </trkpt>
      <trkpt lat="44.24887" lon="4.53721">
        <ele>330</ele>
        <time>2021-07-04T13:54:55Z</time>
      </trkpt>
      <trkpt lat="44.24852" lon="4.53901">
        <ele>336</ele>
        <time>2021-07-04T13:55:26Z</time>
      </trkpt>
      <trkpt lat="44.24838" lon="4.53937">
        <ele>336</ele>
        <time>2021-07-04T13:55:33Z</time>
      </trkpt>
      <trkpt lat="44.24842" lon="4.53929">
        <ele>336</ele>
        <time>2021-07-04T13:55:34Z</time>
      </trkpt>
      <trkpt lat="44.24842" lon="4.53949">
        <ele>335</ele>
        <time>2021-07-04T13:55:38Z</time>
      </trkpt>
      <trkpt lat="44.24835" lon="4.53965">
        <ele>335</ele>
        <time>2021-07-04T13:55:41Z</time>
      </trkpt>
      <trkpt lat="44.24833" lon="4.53985">
        <ele>335</ele>
        <time>2021-07-04T13:55:44Z</time>
      </trkpt>
      <trkpt lat="44.24823" lon="4.54015">
        <ele>335</ele>
        <time>2021-07-04T13:55:50Z</time>
      </trkpt>
      <trkpt lat="44.24811" lon="4.54075">
        <ele>335</ele>
        <time>2021-07-04T13:56:00Z</time>
      </trkpt>
      <trkpt lat="44.24788" lon="4.54123">
        <ele>336</ele>
        <time>2021-07-04T13:56:10Z</time>
      </trkpt>
      <trkpt lat="44.24781" lon="4.54161">
        <ele>337</ele>
        <time>2021-07-04T13:56:16Z</time>
      </trkpt>
      <trkpt lat="44.24772" lon="4.54194">
        <ele>339</ele>
        <time>2021-07-04T13:56:22Z</time>
      </trkpt>
      <trkpt lat="44.2475" lon="4.54232">
        <ele>343</ele>
        <time>2021-07-04T13:56:30Z</time>
      </trkpt>
      <trkpt lat="44.24727" lon="4.54294">
        <ele>346</ele>
        <time>2021-07-04T13:56:42Z</time>
      </trkpt>
      <trkpt lat="44.24707" lon="4.54321">
        <ele>348</ele>
        <time>2021-07-04T13:56:49Z</time>
      </trkpt>
      <trkpt lat="44.24694" lon="4.54319">
        <ele>349</ele>
        <time>2021-07-04T13:56:52Z</time>
      </trkpt>
      <trkpt lat="44.2467" lon="4.54335">
        <ele>350</ele>
        <time>2021-07-04T13:56:58Z</time>
      </trkpt>
      <trkpt lat="44.24642" lon="4.54332">
        <ele>350</ele>
        <time>2021-07-04T13:57:04Z</time>
      </trkpt>
      <trkpt lat="44.24629" lon="4.54356">
        <ele>346</ele>
        <time>2021-07-04T13:57:10Z</time>
      </trkpt>
      <trkpt lat="44.2462" lon="4.54363">
        <ele>345</ele>
        <time>2021-07-04T13:57:12Z</time>
      </trkpt>
      <trkpt lat="44.24594" lon="4.54367">
        <ele>344</ele>
        <time>2021-07-04T13:57:18Z</time>
      </trkpt>
      <trkpt lat="44.24578" lon="4.54373">
        <ele>343</ele>
        <time>2021-07-04T13:57:22Z</time>
      </trkpt>
      <trkpt lat="44.24548" lon="4.54379">
        <ele>344</ele>
        <time>2021-07-04T13:57:29Z</time>
      </trkpt>
      <trkpt lat="44.24536" lon="4.54378">
        <ele>345</ele>
        <time>2021-07-04T13:57:32Z</time>
      </trkpt>
      <trkpt lat="44.24534" lon="4.54382">
        <ele>345</ele>
        <time>2021-07-04T13:57:33Z</time>
      </trkpt>
      <trkpt lat="44.24506" lon="4.54381">
        <ele>347</ele>
        <time>2021-07-04T13:57:39Z</time>
      </trkpt>
      <trkpt lat="44.24506" lon="4.54404">
        <ele>345</ele>
        <time>2021-07-04T13:57:43Z</time>
      </trkpt>
      <trkpt lat="44.2452" lon="4.54454">
        <ele>339</ele>
        <time>2021-07-04T13:57:52Z</time>
      </trkpt>
      <trkpt lat="44.24478" lon="4.54557">
        <ele>332</ele>
        <time>2021-07-04T13:58:12Z</time>
      </trkpt>
      <trkpt lat="44.24439" lon="4.54672">
        <ele>324</ele>
        <time>2021-07-04T13:58:33Z</time>
      </trkpt>
      <trkpt lat="44.2444" lon="4.54759">
        <ele>311</ele>
        <time>2021-07-04T13:58:48Z</time>
      </trkpt>
      <trkpt lat="44.24467" lon="4.54762">
        <ele>307</ele>
        <time>2021-07-04T13:58:54Z</time>
      </trkpt>
      <trkpt lat="44.24503" lon="4.54777">
        <ele>300</ele>
        <time>2021-07-04T13:59:03Z</time>
      </trkpt>
      <trkpt lat="44.24508" lon="4.54776">
        <ele>300</ele>
        <time>2021-07-04T13:59:04Z</time>
      </trkpt>
      <trkpt lat="44.24533" lon="4.54758">
        <ele>298</ele>
        <time>2021-07-04T13:59:10Z</time>
      </trkpt>
      <trkpt lat="44.24557" lon="4.54753">
        <ele>295</ele>
        <time>2021-07-04T13:59:16Z</time>
      </trkpt>
      <trkpt lat="44.24583" lon="4.54776">
        <ele>291</ele>
        <time>2021-07-04T13:59:23Z</time>
      </trkpt>
      <trkpt lat="44.24593" lon="4.54791">
        <ele>289</ele>
        <time>2021-07-04T13:59:27Z</time>
      </trkpt>
      <trkpt lat="44.24608" lon="4.54847">
        <ele>285</ele>
        <time>2021-07-04T13:59:37Z</time>
      </trkpt>
      <trkpt lat="44.24624" lon="4.5489">
        <ele>282</ele>
        <time>2021-07-04T13:59:45Z</time>
      </trkpt>
      <trkpt lat="44.24652" lon="4.54952">
        <ele>281</ele>
        <time>2021-07-04T13:59:57Z</time>
      </trkpt>
      <trkpt lat="44.24668" lon="4.54977">
        <ele>282</ele>
        <time>2021-07-04T14:00:03Z</time>
      </trkpt>
      <trkpt lat="44.24644" lon="4.55056">
        <ele>277</ele>
        <time>2021-07-04T14:00:17Z</time>
      </trkpt>
      <trkpt lat="44.24615" lon="4.55054">
        <ele>271</ele>
        <time>2021-07-04T14:00:24Z</time>
      </trkpt>
      <trkpt lat="44.2459" lon="4.55057">
        <ele>265</ele>
        <time>2021-07-04T14:00:30Z</time>
      </trkpt>
      <trkpt lat="44.24577" lon="4.55061">
        <ele>262</ele>
        <time>2021-07-04T14:00:33Z</time>
      </trkpt>
      <trkpt lat="44.24571" lon="4.55059">
        <ele>260</ele>
        <time>2021-07-04T14:00:34Z</time>
      </trkpt>
      <trkpt lat="44.24565" lon="4.55049">
        <ele>260</ele>
        <time>2021-07-04T14:00:36Z</time>
      </trkpt>
      <trkpt lat="44.24564" lon="4.55036">
        <ele>261</ele>
        <time>2021-07-04T14:00:39Z</time>
      </trkpt>
      <trkpt lat="44.24571" lon="4.55004">
        <ele>267</ele>
        <time>2021-07-04T14:00:44Z</time>
      </trkpt>
      <trkpt lat="44.24573" lon="4.54981">
        <ele>270</ele>
        <time>2021-07-04T14:00:48Z</time>
      </trkpt>
      <trkpt lat="44.24569" lon="4.54973">
        <ele>271</ele>
        <time>2021-07-04T14:00:50Z</time>
      </trkpt>
      <trkpt lat="44.2456" lon="4.54961">
        <ele>271</ele>
        <time>2021-07-04T14:00:53Z</time>
      </trkpt>
      <trkpt lat="44.24545" lon="4.54954">
        <ele>269</ele>
        <time>2021-07-04T14:00:56Z</time>
      </trkpt>
      <trkpt lat="44.24518" lon="4.54954">
        <ele>264</ele>
        <time>2021-07-04T14:01:03Z</time>
      </trkpt>
      <trkpt lat="44.24507" lon="4.54943">
        <ele>265</ele>
        <time>2021-07-04T14:01:06Z</time>
      </trkpt>
      <trkpt lat="44.245" lon="4.54927">
        <ele>268</ele>
        <time>2021-07-04T14:01:09Z</time>
      </trkpt>
      <trkpt lat="44.24478" lon="4.54898">
        <ele>276</ele>
        <time>2021-07-04T14:01:16Z</time>
      </trkpt>
      <trkpt lat="44.24467" lon="4.54891">
        <ele>279</ele>
        <time>2021-07-04T14:01:19Z</time>
      </trkpt>
      <trkpt lat="44.24453" lon="4.54886">
        <ele>281</ele>
        <time>2021-07-04T14:01:22Z</time>
      </trkpt>
      <trkpt lat="44.24441" lon="4.5489">
        <ele>280</ele>
        <time>2021-07-04T14:01:25Z</time>
      </trkpt>
      <trkpt lat="44.24431" lon="4.549">
        <ele>278</ele>
        <time>2021-07-04T14:01:28Z</time>
      </trkpt>
      <trkpt lat="44.24426" lon="4.54917">
        <ele>274</ele>
        <time>2021-07-04T14:01:31Z</time>
      </trkpt>
      <trkpt lat="44.24423" lon="4.54969">
        <ele>263</ele>
        <time>2021-07-04T14:01:40Z</time>
      </trkpt>
      <trkpt lat="44.24419" lon="4.54982">
        <ele>261</ele>
        <time>2021-07-04T14:01:42Z</time>
      </trkpt>
      <trkpt lat="44.24408" lon="4.55002">
        <ele>258</ele>
        <time>2021-07-04T14:01:46Z</time>
      </trkpt>
      <trkpt lat="44.24399" lon="4.55013">
        <ele>258</ele>
        <time>2021-07-04T14:01:49Z</time>
      </trkpt>
      <trkpt lat="44.24389" lon="4.55022">
        <ele>258</ele>
        <time>2021-07-04T14:01:52Z</time>
      </trkpt>
      <trkpt lat="44.24352" lon="4.55036">
        <ele>260</ele>
        <time>2021-07-04T14:02:01Z</time>
      </trkpt>
      <trkpt lat="44.24317" lon="4.55041">
        <ele>261</ele>
        <time>2021-07-04T14:02:09Z</time>
      </trkpt>
      <trkpt lat="44.24309" lon="4.55046">
        <ele>260</ele>
        <time>2021-07-04T14:02:11Z</time>
      </trkpt>
      <trkpt lat="44.24303" lon="4.55056">
        <ele>258</ele>
        <time>2021-07-04T14:02:13Z</time>
      </trkpt>
      <trkpt lat="44.24297" lon="4.55088">
        <ele>253</ele>
        <time>2021-07-04T14:02:19Z</time>
      </trkpt>
      <trkpt lat="44.24292" lon="4.551">
        <ele>251</ele>
        <time>2021-07-04T14:02:21Z</time>
      </trkpt>
      <trkpt lat="44.24276" lon="4.55109">
        <ele>250</ele>
        <time>2021-07-04T14:02:25Z</time>
      </trkpt>
      <trkpt lat="44.24267" lon="4.55108">
        <ele>251</ele>
        <time>2021-07-04T14:02:27Z</time>
      </trkpt>
      <trkpt lat="44.24256" lon="4.55102">
        <ele>251</ele>
        <time>2021-07-04T14:02:30Z</time>
      </trkpt>
      <trkpt lat="44.24239" lon="4.55074">
        <ele>256</ele>
        <time>2021-07-04T14:02:36Z</time>
      </trkpt>
      <trkpt lat="44.24235" lon="4.55071">
        <ele>256</ele>
        <time>2021-07-04T14:02:37Z</time>
      </trkpt>
      <trkpt lat="44.24229" lon="4.55072">
        <ele>256</ele>
        <time>2021-07-04T14:02:39Z</time>
      </trkpt>
      <trkpt lat="44.24224" lon="4.55079">
        <ele>255</ele>
        <time>2021-07-04T14:02:40Z</time>
      </trkpt>
      <trkpt lat="44.24224" lon="4.55093">
        <ele>252</ele>
        <time>2021-07-04T14:02:43Z</time>
      </trkpt>
      <trkpt lat="44.24217" lon="4.5513">
        <ele>246</ele>
        <time>2021-07-04T14:02:49Z</time>
      </trkpt>
      <trkpt lat="44.24207" lon="4.55146">
        <ele>243</ele>
        <time>2021-07-04T14:02:53Z</time>
      </trkpt>
      <trkpt lat="44.24196" lon="4.55157">
        <ele>241</ele>
        <time>2021-07-04T14:02:56Z</time>
      </trkpt>
      <trkpt lat="44.24179" lon="4.55161">
        <ele>239</ele>
        <time>2021-07-04T14:03:00Z</time>
      </trkpt>
      <trkpt lat="44.24164" lon="4.55149">
        <ele>240</ele>
        <time>2021-07-04T14:03:04Z</time>
      </trkpt>
      <trkpt lat="44.24156" lon="4.55132">
        <ele>243</ele>
        <time>2021-07-04T14:03:07Z</time>
      </trkpt>
      <trkpt lat="44.24129" lon="4.55088">
        <ele>250</ele>
        <time>2021-07-04T14:03:17Z</time>
      </trkpt>
      <trkpt lat="44.24077" lon="4.55058">
        <ele>255</ele>
        <time>2021-07-04T14:03:30Z</time>
      </trkpt>
      <trkpt lat="44.23995" lon="4.55064">
        <ele>247</ele>
        <time>2021-07-04T14:03:49Z</time>
      </trkpt>
      <trkpt lat="44.23948" lon="4.55061">
        <ele>241</ele>
        <time>2021-07-04T14:04:00Z</time>
      </trkpt>
      <trkpt lat="44.23933" lon="4.55045">
        <ele>242</ele>
        <time>2021-07-04T14:04:05Z</time>
      </trkpt>
      <trkpt lat="44.23919" lon="4.54988">
        <ele>248</ele>
        <time>2021-07-04T14:04:15Z</time>
      </trkpt>
      <trkpt lat="44.23899" lon="4.5498">
        <ele>249</ele>
        <time>2021-07-04T14:04:20Z</time>
      </trkpt>
      <trkpt lat="44.23883" lon="4.55027">
        <ele>243</ele>
        <time>2021-07-04T14:04:28Z</time>
      </trkpt>
      <trkpt lat="44.23852" lon="4.55032">
        <ele>244</ele>
        <time>2021-07-04T14:04:36Z</time>
      </trkpt>
      <trkpt lat="44.23844" lon="4.55104">
        <ele>238</ele>
        <time>2021-07-04T14:04:48Z</time>
      </trkpt>
      <trkpt lat="44.23872" lon="4.5528">
        <ele>220</ele>
        <time>2021-07-04T14:05:18Z</time>
      </trkpt>
      <trkpt lat="44.23872" lon="4.55302">
        <ele>218</ele>
        <time>2021-07-04T14:05:22Z</time>
      </trkpt>
      <trkpt lat="44.2386" lon="4.55304">
        <ele>221</ele>
        <time>2021-07-04T14:05:24Z</time>
      </trkpt>
      <trkpt lat="44.2385" lon="4.55318">
        <ele>222</ele>
        <time>2021-07-04T14:05:28Z</time>
      </trkpt>
      <trkpt lat="44.23842" lon="4.55313">
        <ele>225</ele>
        <time>2021-07-04T14:05:30Z</time>
      </trkpt>
      <trkpt lat="44.23838" lon="4.55313">
        <ele>226</ele>
        <time>2021-07-04T14:05:31Z</time>
      </trkpt>
      <trkpt lat="44.23828" lon="4.55326">
        <ele>226</ele>
        <time>2021-07-04T14:05:34Z</time>
      </trkpt>
      <trkpt lat="44.23825" lon="4.55326">
        <ele>227</ele>
        <time>2021-07-04T14:05:35Z</time>
      </trkpt>
      <trkpt lat="44.23804" lon="4.55315">
        <ele>230</ele>
        <time>2021-07-04T14:05:40Z</time>
      </trkpt>
      <trkpt lat="44.23757" lon="4.55277">
        <ele>240</ele>
        <time>2021-07-04T14:05:53Z</time>
      </trkpt>
      <trkpt lat="44.23738" lon="4.55274">
        <ele>243</ele>
        <time>2021-07-04T14:05:57Z</time>
      </trkpt>
      <trkpt lat="44.23703" lon="4.5528">
        <ele>249</ele>
        <time>2021-07-04T14:06:05Z</time>
      </trkpt>
      <trkpt lat="44.23691" lon="4.55278">
        <ele>252</ele>
        <time>2021-07-04T14:06:08Z</time>
      </trkpt>
      <trkpt lat="44.23702" lon="4.5521">
        <ele>256</ele>
        <time>2021-07-04T14:06:20Z</time>
      </trkpt>
      <trkpt lat="44.23714" lon="4.55186">
        <ele>255</ele>
        <time>2021-07-04T14:06:25Z</time>
      </trkpt>
      <trkpt lat="44.2372" lon="4.55164">
        <ele>255</ele>
        <time>2021-07-04T14:06:29Z</time>
      </trkpt>
      <trkpt lat="44.23712" lon="4.55115">
        <ele>260</ele>
        <time>2021-07-04T14:06:37Z</time>
      </trkpt>
      <trkpt lat="44.23718" lon="4.55103">
        <ele>259</ele>
        <time>2021-07-04T14:06:39Z</time>
      </trkpt>
      <trkpt lat="44.23723" lon="4.551">
        <ele>258</ele>
        <time>2021-07-04T14:06:41Z</time>
      </trkpt>
      <trkpt lat="44.23754" lon="4.55096">
        <ele>252</ele>
        <time>2021-07-04T14:06:48Z</time>
      </trkpt>
      <trkpt lat="44.23764" lon="4.55091">
        <ele>251</ele>
        <time>2021-07-04T14:06:50Z</time>
      </trkpt>
      <trkpt lat="44.23775" lon="4.55076">
        <ele>250</ele>
        <time>2021-07-04T14:06:54Z</time>
      </trkpt>
      <trkpt lat="44.23779" lon="4.55041">
        <ele>251</ele>
        <time>2021-07-04T14:07:00Z</time>
      </trkpt>
      <trkpt lat="44.23773" lon="4.55019">
        <ele>253</ele>
        <time>2021-07-04T14:07:04Z</time>
      </trkpt>
      <trkpt lat="44.23768" lon="4.55057">
        <ele>252</ele>
        <time>2021-07-04T14:07:10Z</time>
      </trkpt>
      <trkpt lat="44.23755" lon="4.55068">
        <ele>254</ele>
        <time>2021-07-04T14:07:14Z</time>
      </trkpt>
      <trkpt lat="44.23747" lon="4.55067">
        <ele>255</ele>
        <time>2021-07-04T14:07:16Z</time>
      </trkpt>
      <trkpt lat="44.23732" lon="4.5506">
        <ele>258</ele>
        <time>2021-07-04T14:07:20Z</time>
      </trkpt>
      <trkpt lat="44.23711" lon="4.55046">
        <ele>262</ele>
        <time>2021-07-04T14:07:25Z</time>
      </trkpt>
      <trkpt lat="44.23692" lon="4.55024">
        <ele>266</ele>
        <time>2021-07-04T14:07:31Z</time>
      </trkpt>
      <trkpt lat="44.23682" lon="4.55001">
        <ele>268</ele>
        <time>2021-07-04T14:07:35Z</time>
      </trkpt>
      <trkpt lat="44.23656" lon="4.54964">
        <ele>273</ele>
        <time>2021-07-04T14:07:44Z</time>
      </trkpt>
      <trkpt lat="44.23638" lon="4.54955">
        <ele>278</ele>
        <time>2021-07-04T14:07:48Z</time>
      </trkpt>
      <trkpt lat="44.2359" lon="4.54898">
        <ele>291</ele>
        <time>2021-07-04T14:08:03Z</time>
      </trkpt>
      <trkpt lat="44.23583" lon="4.54902">
        <ele>293</ele>
        <time>2021-07-04T14:08:05Z</time>
      </trkpt>
      <trkpt lat="44.23577" lon="4.54902">
        <ele>294</ele>
        <time>2021-07-04T14:08:06Z</time>
      </trkpt>
      <trkpt lat="44.23568" lon="4.54898">
        <ele>296</ele>
        <time>2021-07-04T14:08:08Z</time>
      </trkpt>
      <trkpt lat="44.23554" lon="4.54882">
        <ele>298</ele>
        <time>2021-07-04T14:08:13Z</time>
      </trkpt>
      <trkpt lat="44.23551" lon="4.54875">
        <ele>298</ele>
        <time>2021-07-04T14:08:14Z</time>
      </trkpt>
      <trkpt lat="44.23552" lon="4.54866">
        <ele>297</ele>
        <time>2021-07-04T14:08:16Z</time>
      </trkpt>
      <trkpt lat="44.23586" lon="4.54823">
        <ele>289</ele>
        <time>2021-07-04T14:08:26Z</time>
      </trkpt>
      <trkpt lat="44.23597" lon="4.54805">
        <ele>284</ele>
        <time>2021-07-04T14:08:30Z</time>
      </trkpt>
      <trkpt lat="44.23601" lon="4.54794">
        <ele>281</ele>
        <time>2021-07-04T14:08:32Z</time>
      </trkpt>
      <trkpt lat="44.23602" lon="4.54782">
        <ele>279</ele>
        <time>2021-07-04T14:08:34Z</time>
      </trkpt>
      <trkpt lat="44.236" lon="4.54777">
        <ele>278</ele>
        <time>2021-07-04T14:08:35Z</time>
      </trkpt>
      <trkpt lat="44.23594" lon="4.54776">
        <ele>279</ele>
        <time>2021-07-04T14:08:37Z</time>
      </trkpt>
      <trkpt lat="44.23579" lon="4.54779">
        <ele>282</ele>
        <time>2021-07-04T14:08:40Z</time>
      </trkpt>
      <trkpt lat="44.2345" lon="4.54822">
        <ele>303</ele>
        <time>2021-07-04T14:09:11Z</time>
      </trkpt>
      <trkpt lat="44.23397" lon="4.54845">
        <ele>308</ele>
        <time>2021-07-04T14:09:24Z</time>
      </trkpt>
      <trkpt lat="44.23383" lon="4.54849">
        <ele>309</ele>
        <time>2021-07-04T14:09:28Z</time>
      </trkpt>
      <trkpt lat="44.23371" lon="4.54846">
        <ele>308</ele>
        <time>2021-07-04T14:09:30Z</time>
      </trkpt>
      <trkpt lat="44.23344" lon="4.54834">
        <ele>304</ele>
        <time>2021-07-04T14:09:37Z</time>
      </trkpt>
      <trkpt lat="44.23319" lon="4.54833">
        <ele>301</ele>
        <time>2021-07-04T14:09:43Z</time>
      </trkpt>
      <trkpt lat="44.23302" lon="4.54845">
        <ele>302</ele>
        <time>2021-07-04T14:09:47Z</time>
      </trkpt>
      <trkpt lat="44.23297" lon="4.54854">
        <ele>304</ele>
        <time>2021-07-04T14:09:49Z</time>
      </trkpt>
      <trkpt lat="44.23267" lon="4.54869">
        <ele>304</ele>
        <time>2021-07-04T14:09:57Z</time>
      </trkpt>
      <trkpt lat="44.23258" lon="4.54887">
        <ele>308</ele>
        <time>2021-07-04T14:10:00Z</time>
      </trkpt>
      <trkpt lat="44.23252" lon="4.5489">
        <ele>308</ele>
        <time>2021-07-04T14:10:02Z</time>
      </trkpt>
      <trkpt lat="44.23202" lon="4.54851">
        <ele>297</ele>
        <time>2021-07-04T14:10:15Z</time>
      </trkpt>
      <trkpt lat="44.23194" lon="4.5484">
        <ele>294</ele>
        <time>2021-07-04T14:10:18Z</time>
      </trkpt>
      <trkpt lat="44.23184" lon="4.54838">
        <ele>294</ele>
        <time>2021-07-04T14:10:20Z</time>
      </trkpt>
      <trkpt lat="44.23133" lon="4.54848">
        <ele>293</ele>
        <time>2021-07-04T14:10:32Z</time>
      </trkpt>
      <trkpt lat="44.23125" lon="4.54861">
        <ele>294</ele>
        <time>2021-07-04T14:10:35Z</time>
      </trkpt>
      <trkpt lat="44.23122" lon="4.54901">
        <ele>300</ele>
        <time>2021-07-04T14:10:42Z</time>
      </trkpt>
      <trkpt lat="44.23118" lon="4.54909">
        <ele>301</ele>
        <time>2021-07-04T14:10:43Z</time>
      </trkpt>
      <trkpt lat="44.23108" lon="4.54912">
        <ele>300</ele>
        <time>2021-07-04T14:10:46Z</time>
      </trkpt>
      <trkpt lat="44.23087" lon="4.54908">
        <ele>296</ele>
        <time>2021-07-04T14:10:51Z</time>
      </trkpt>
      <trkpt lat="44.23081" lon="4.54909">
        <ele>295</ele>
        <time>2021-07-04T14:10:52Z</time>
      </trkpt>
      <trkpt lat="44.23074" lon="4.54914">
        <ele>294</ele>
        <time>2021-07-04T14:10:54Z</time>
      </trkpt>
      <trkpt lat="44.23059" lon="4.5494">
        <ele>297</ele>
        <time>2021-07-04T14:11:00Z</time>
      </trkpt>
      <trkpt lat="44.23049" lon="4.54945">
        <ele>296</ele>
        <time>2021-07-04T14:11:02Z</time>
      </trkpt>
      <trkpt lat="44.23025" lon="4.54945">
        <ele>291</ele>
        <time>2021-07-04T14:11:08Z</time>
      </trkpt>
      <trkpt lat="44.23007" lon="4.54951">
        <ele>289</ele>
        <time>2021-07-04T14:11:12Z</time>
      </trkpt>
      <trkpt lat="44.22992" lon="4.5496">
        <ele>289</ele>
        <time>2021-07-04T14:11:16Z</time>
      </trkpt>
      <trkpt lat="44.2298" lon="4.54973">
        <ele>291</ele>
        <time>2021-07-04T14:11:19Z</time>
      </trkpt>
      <trkpt lat="44.22971" lon="4.54979">
        <ele>291</ele>
        <time>2021-07-04T14:11:22Z</time>
      </trkpt>
      <trkpt lat="44.22957" lon="4.54981">
        <ele>290</ele>
        <time>2021-07-04T14:11:25Z</time>
      </trkpt>
      <trkpt lat="44.22914" lon="4.5498">
        <ele>286</ele>
        <time>2021-07-04T14:11:35Z</time>
      </trkpt>
      <trkpt lat="44.229" lon="4.54973">
        <ele>284</ele>
        <time>2021-07-04T14:11:38Z</time>
      </trkpt>
      <trkpt lat="44.22887" lon="4.54963">
        <ele>282</ele>
        <time>2021-07-04T14:11:42Z</time>
      </trkpt>
      <trkpt lat="44.22875" lon="4.54958">
        <ele>281</ele>
        <time>2021-07-04T14:11:45Z</time>
      </trkpt>
      <trkpt lat="44.22828" lon="4.54955">
        <ele>282</ele>
        <time>2021-07-04T14:11:56Z</time>
      </trkpt>
      <trkpt lat="44.22766" lon="4.54895">
        <ele>272</ele>
        <time>2021-07-04T14:12:13Z</time>
      </trkpt>
      <trkpt lat="44.22756" lon="4.54891">
        <ele>272</ele>
        <time>2021-07-04T14:12:16Z</time>
      </trkpt>
      <trkpt lat="44.22718" lon="4.54887">
        <ele>271</ele>
        <time>2021-07-04T14:12:25Z</time>
      </trkpt>
      <trkpt lat="44.22683" lon="4.54891">
        <ele>272</ele>
        <time>2021-07-04T14:12:33Z</time>
      </trkpt>
      <trkpt lat="44.2267" lon="4.54898">
        <ele>273</ele>
        <time>2021-07-04T14:12:36Z</time>
      </trkpt>
      <trkpt lat="44.22657" lon="4.549">
        <ele>273</ele>
        <time>2021-07-04T14:12:39Z</time>
      </trkpt>
      <trkpt lat="44.22644" lon="4.549">
        <ele>272</ele>
        <time>2021-07-04T14:12:42Z</time>
      </trkpt>
      <trkpt lat="44.22628" lon="4.54896">
        <ele>271</ele>
        <time>2021-07-04T14:12:46Z</time>
      </trkpt>
      <trkpt lat="44.22625" lon="4.54893">
        <ele>270</ele>
        <time>2021-07-04T14:12:47Z</time>
      </trkpt>
      <trkpt lat="44.22579" lon="4.54875">
        <ele>266</ele>
        <time>2021-07-04T14:12:58Z</time>
      </trkpt>
      <trkpt lat="44.22568" lon="4.54867">
        <ele>264</ele>
        <time>2021-07-04T14:13:01Z</time>
      </trkpt>
      <trkpt lat="44.22544" lon="4.54841">
        <ele>257</ele>
        <time>2021-07-04T14:13:08Z</time>
      </trkpt>
      <trkpt lat="44.22544" lon="4.54844">
        <ele>258</ele>
        <time>2021-07-04T14:13:09Z</time>
      </trkpt>
      <trkpt lat="44.22535" lon="4.54848">
        <ele>258</ele>
        <time>2021-07-04T14:13:11Z</time>
      </trkpt>
      <trkpt lat="44.22409" lon="4.54944">
        <ele>266</ele>
        <time>2021-07-04T14:13:44Z</time>
      </trkpt>
      <trkpt lat="44.22245" lon="4.54981">
        <ele>271</ele>
        <time>2021-07-04T14:14:23Z</time>
      </trkpt>
      <trkpt lat="44.22194" lon="4.54957">
        <ele>272</ele>
        <time>2021-07-04T14:14:36Z</time>
      </trkpt>
      <trkpt lat="44.22195" lon="4.54964">
        <ele>272</ele>
        <time>2021-07-04T14:14:37Z</time>
      </trkpt>
      <trkpt lat="44.22162" lon="4.54976">
        <ele>273</ele>
        <time>2021-07-04T14:14:45Z</time>
      </trkpt>
      <trkpt lat="44.22135" lon="4.54976">
        <ele>276</ele>
        <time>2021-07-04T14:14:51Z</time>
      </trkpt>
      <trkpt lat="44.22086" lon="4.55">
        <ele>277</ele>
        <time>2021-07-04T14:15:03Z</time>
      </trkpt>
      <trkpt lat="44.22047" lon="4.55003">
        <ele>276</ele>
        <time>2021-07-04T14:15:12Z</time>
      </trkpt>
      <trkpt lat="44.22018" lon="4.5501">
        <ele>274</ele>
        <time>2021-07-04T14:15:19Z</time>
      </trkpt>
      <trkpt lat="44.21965" lon="4.55007">
        <ele>271</ele>
        <time>2021-07-04T14:15:32Z</time>
      </trkpt>
      <trkpt lat="44.21852" lon="4.54991">
        <ele>260</ele>
        <time>2021-07-04T14:15:58Z</time>
      </trkpt>
      <trkpt lat="44.21842" lon="4.54992">
        <ele>258</ele>
        <time>2021-07-04T14:16:01Z</time>
      </trkpt>
      <trkpt lat="44.21836" lon="4.54997">
        <ele>257</ele>
        <time>2021-07-04T14:16:02Z</time>
      </trkpt>
      <trkpt lat="44.21831" lon="4.55007">
        <ele>255</ele>
        <time>2021-07-04T14:16:04Z</time>
      </trkpt>
      <trkpt lat="44.218" lon="4.5511">
        <ele>246</ele>
        <time>2021-07-04T14:16:23Z</time>
      </trkpt>
      <trkpt lat="44.21791" lon="4.55125">
        <ele>244</ele>
        <time>2021-07-04T14:16:26Z</time>
      </trkpt>
      <trkpt lat="44.21772" lon="4.5513">
        <ele>243</ele>
        <time>2021-07-04T14:16:31Z</time>
      </trkpt>
      <trkpt lat="44.21696" lon="4.55113">
        <ele>242</ele>
        <time>2021-07-04T14:16:49Z</time>
      </trkpt>
      <trkpt lat="44.21676" lon="4.55111">
        <ele>242</ele>
        <time>2021-07-04T14:16:53Z</time>
      </trkpt>
      <trkpt lat="44.21656" lon="4.55112">
        <ele>240</ele>
        <time>2021-07-04T14:16:58Z</time>
      </trkpt>
      <trkpt lat="44.21646" lon="4.55115">
        <ele>238</ele>
        <time>2021-07-04T14:17:00Z</time>
      </trkpt>
      <trkpt lat="44.21613" lon="4.55102">
        <ele>233</ele>
        <time>2021-07-04T14:17:08Z</time>
      </trkpt>
      <trkpt lat="44.21589" lon="4.55087">
        <ele>230</ele>
        <time>2021-07-04T14:17:15Z</time>
      </trkpt>
      <trkpt lat="44.21566" lon="4.55066">
        <ele>230</ele>
        <time>2021-07-04T14:17:21Z</time>
      </trkpt>
      <trkpt lat="44.21532" lon="4.55046">
        <ele>227</ele>
        <time>2021-07-04T14:17:30Z</time>
      </trkpt>
      <trkpt lat="44.2151" lon="4.55037">
        <ele>224</ele>
        <time>2021-07-04T14:17:35Z</time>
      </trkpt>
      <trkpt lat="44.21472" lon="4.55033">
        <ele>217</ele>
        <time>2021-07-04T14:17:44Z</time>
      </trkpt>
      <trkpt lat="44.21408" lon="4.5496">
        <ele>211</ele>
        <time>2021-07-04T14:18:03Z</time>
      </trkpt>
      <trkpt lat="44.21357" lon="4.54945">
        <ele>200</ele>
        <time>2021-07-04T14:18:15Z</time>
      </trkpt>
      <trkpt lat="44.21337" lon="4.54947">
        <ele>195</ele>
        <time>2021-07-04T14:18:20Z</time>
      </trkpt>
      <trkpt lat="44.21318" lon="4.54954">
        <ele>192</ele>
        <time>2021-07-04T14:18:25Z</time>
      </trkpt>
      <trkpt lat="44.21293" lon="4.54968">
        <ele>188</ele>
        <time>2021-07-04T14:18:31Z</time>
      </trkpt>
      <trkpt lat="44.21238" lon="4.54981">
        <ele>183</ele>
        <time>2021-07-04T14:18:44Z</time>
      </trkpt>
      <trkpt lat="44.212" lon="4.54975">
        <ele>180</ele>
        <time>2021-07-04T14:18:53Z</time>
      </trkpt>
      <trkpt lat="44.21157" lon="4.54962">
        <ele>178</ele>
        <time>2021-07-04T14:19:03Z</time>
      </trkpt>
      <trkpt lat="44.21141" lon="4.54954">
        <ele>177</ele>
        <time>2021-07-04T14:19:07Z</time>
      </trkpt>
      <trkpt lat="44.21122" lon="4.54941">
        <ele>176</ele>
        <time>2021-07-04T14:19:12Z</time>
      </trkpt>
      <trkpt lat="44.21109" lon="4.54928">
        <ele>175</ele>
        <time>2021-07-04T14:19:16Z</time>
      </trkpt>
      <trkpt lat="44.21097" lon="4.54909">
        <ele>175</ele>
        <time>2021-07-04T14:19:20Z</time>
      </trkpt>
      <trkpt lat="44.21086" lon="4.54884">
        <ele>174</ele>
        <time>2021-07-04T14:19:25Z</time>
      </trkpt>
      <trkpt lat="44.21046" lon="4.54879">
        <ele>174</ele>
        <time>2021-07-04T14:19:34Z</time>
      </trkpt>
      <trkpt lat="44.21046" lon="4.54881">
        <ele>174</ele>
        <time>2021-07-04T14:19:35Z</time>
      </trkpt>
      <trkpt lat="44.21045" lon="4.54839">
        <ele>174</ele>
        <time>2021-07-04T14:19:42Z</time>
      </trkpt>
      <trkpt lat="44.21078" lon="4.54811">
        <ele>171</ele>
        <time>2021-07-04T14:19:51Z</time>
      </trkpt>
      <trkpt lat="44.21083" lon="4.54776">
        <ele>168</ele>
        <time>2021-07-04T14:19:57Z</time>
      </trkpt>
      <trkpt lat="44.21086" lon="4.54776">
        <ele>168</ele>
        <time>2021-07-04T14:19:57Z</time>
      </trkpt>
      <trkpt lat="44.21085" lon="4.54781">
        <ele>169</ele>
        <time>2021-07-04T14:19:58Z</time>
      </trkpt>
      <trkpt lat="44.21047" lon="4.54768">
        <ele>166</ele>
        <time>2021-07-04T14:20:07Z</time>
      </trkpt>
      <trkpt lat="44.21025" lon="4.54753">
        <ele>164</ele>
        <time>2021-07-04T14:20:13Z</time>
      </trkpt>
      <trkpt lat="44.20984" lon="4.54736">
        <ele>160</ele>
        <time>2021-07-04T14:20:23Z</time>
      </trkpt>
      <trkpt lat="44.20935" lon="4.54707">
        <ele>156</ele>
        <time>2021-07-04T14:20:36Z</time>
      </trkpt>
      <trkpt lat="44.20879" lon="4.54663">
        <ele>146</ele>
        <time>2021-07-04T14:20:51Z</time>
      </trkpt>
      <trkpt lat="44.20874" lon="4.54655">
        <ele>145</ele>
        <time>2021-07-04T14:20:52Z</time>
      </trkpt>
      <trkpt lat="44.20865" lon="4.54648">
        <ele>144</ele>
        <time>2021-07-04T14:20:55Z</time>
      </trkpt>
      <trkpt lat="44.2078" lon="4.54596">
        <ele>144</ele>
        <time>2021-07-04T14:21:16Z</time>
      </trkpt>
      <trkpt lat="44.20779" lon="4.54586">
        <ele>144</ele>
        <time>2021-07-04T14:21:18Z</time>
      </trkpt>
      <trkpt lat="44.2078" lon="4.54596">
        <ele>144</ele>
        <time>2021-07-04T14:21:20Z</time>
      </trkpt>
      <trkpt lat="44.20762" lon="4.54614">
        <ele>144</ele>
        <time>2021-07-04T14:21:25Z</time>
      </trkpt>
      <trkpt lat="44.20754" lon="4.54615">
        <ele>145</ele>
        <time>2021-07-04T14:21:27Z</time>
      </trkpt>
      <trkpt lat="44.20685" lon="4.54585">
        <ele>145</ele>
        <time>2021-07-04T14:21:44Z</time>
      </trkpt>
      <trkpt lat="44.20624" lon="4.54563">
        <ele>146</ele>
        <time>2021-07-04T14:21:58Z</time>
      </trkpt>
      <trkpt lat="44.20593" lon="4.54555">
        <ele>147</ele>
        <time>2021-07-04T14:22:06Z</time>
      </trkpt>
      <trkpt lat="44.20586" lon="4.54567">
        <ele>147</ele>
        <time>2021-07-04T14:22:08Z</time>
      </trkpt>
      <trkpt lat="44.20581" lon="4.5459">
        <ele>144</ele>
        <time>2021-07-04T14:22:12Z</time>
      </trkpt>
      <trkpt lat="44.20558" lon="4.54568">
        <ele>144</ele>
        <time>2021-07-04T14:22:19Z</time>
      </trkpt>
      <trkpt lat="44.20477" lon="4.54519">
        <ele>143</ele>
        <time>2021-07-04T14:22:40Z</time>
      </trkpt>
      <trkpt lat="44.2045" lon="4.54506">
        <ele>142</ele>
        <time>2021-07-04T14:22:46Z</time>
      </trkpt>
      <trkpt lat="44.2042" lon="4.54499">
        <ele>139</ele>
        <time>2021-07-04T14:22:53Z</time>
      </trkpt>
      <trkpt lat="44.20405" lon="4.545">
        <ele>138</ele>
        <time>2021-07-04T14:22:57Z</time>
      </trkpt>
      <trkpt lat="44.20373" lon="4.54493">
        <ele>136</ele>
        <time>2021-07-04T14:23:04Z</time>
      </trkpt>
      <trkpt lat="44.20364" lon="4.54489">
        <ele>135</ele>
        <time>2021-07-04T14:23:07Z</time>
      </trkpt>
      <trkpt lat="44.20353" lon="4.54468">
        <ele>134</ele>
        <time>2021-07-04T14:23:11Z</time>
      </trkpt>
      <trkpt lat="44.20284" lon="4.5446">
        <ele>124</ele>
        <time>2021-07-04T14:23:27Z</time>
      </trkpt>
      <trkpt lat="44.20261" lon="4.54461">
        <ele>120</ele>
        <time>2021-07-04T14:23:32Z</time>
      </trkpt>
      <trkpt lat="44.20243" lon="4.54409">
        <ele>117</ele>
        <time>2021-07-04T14:23:42Z</time>
      </trkpt>
      <trkpt lat="44.20242" lon="4.54413">
        <ele>117</ele>
        <time>2021-07-04T14:23:43Z</time>
      </trkpt>
      <trkpt lat="44.20231" lon="4.54411">
        <ele>116</ele>
        <time>2021-07-04T14:23:45Z</time>
      </trkpt>
      <trkpt lat="44.20219" lon="4.54412">
        <ele>115</ele>
        <time>2021-07-04T14:23:48Z</time>
      </trkpt>
      <trkpt lat="44.20207" lon="4.54416">
        <ele>114</ele>
        <time>2021-07-04T14:23:51Z</time>
      </trkpt>
      <trkpt lat="44.20183" lon="4.54414">
        <ele>112</ele>
        <time>2021-07-04T14:23:57Z</time>
      </trkpt>
      <trkpt lat="44.20153" lon="4.54407">
        <ele>109</ele>
        <time>2021-07-04T14:24:04Z</time>
      </trkpt>
      <trkpt lat="44.20106" lon="4.54379">
        <ele>104</ele>
        <time>2021-07-04T14:24:16Z</time>
      </trkpt>
      <trkpt lat="44.20108" lon="4.54355">
        <ele>103</ele>
        <time>2021-07-04T14:24:20Z</time>
      </trkpt>
      <trkpt lat="44.20149" lon="4.54266">
        <ele>104</ele>
        <time>2021-07-04T14:24:38Z</time>
      </trkpt>
      <trkpt lat="44.20235" lon="4.54164">
        <ele>103</ele>
        <time>2021-07-04T14:25:04Z</time>
      </trkpt>
      <trkpt lat="44.20291" lon="4.54084">
        <ele>100</ele>
        <time>2021-07-04T14:25:23Z</time>
      </trkpt>
      <trkpt lat="44.20297" lon="4.54069">
        <ele>98</ele>
        <time>2021-07-04T14:25:26Z</time>
      </trkpt>
      <trkpt lat="44.20302" lon="4.5407">
        <ele>98</ele>
        <time>2021-07-04T14:25:27Z</time>
      </trkpt>
      <trkpt lat="44.20316" lon="4.54062">
        <ele>98</ele>
        <time>2021-07-04T14:25:30Z</time>
      </trkpt>
      <trkpt lat="44.20344" lon="4.54054">
        <ele>98</ele>
        <time>2021-07-04T14:25:37Z</time>
      </trkpt>
      <trkpt lat="44.20409" lon="4.54049">
        <ele>100</ele>
        <time>2021-07-04T14:25:52Z</time>
      </trkpt>
      <trkpt lat="44.20451" lon="4.54051">
        <ele>101</ele>
        <time>2021-07-04T14:26:02Z</time>
      </trkpt>
      <trkpt lat="44.20458" lon="4.54049">
        <ele>101</ele>
        <time>2021-07-04T14:26:04Z</time>
      </trkpt>
      <trkpt lat="44.20473" lon="4.54042">
        <ele>101</ele>
        <time>2021-07-04T14:26:07Z</time>
      </trkpt>
      <trkpt lat="44.2057" lon="4.53975">
        <ele>100</ele>
        <time>2021-07-04T14:26:33Z</time>
      </trkpt>
      <trkpt lat="44.20606" lon="4.53957">
        <ele>101</ele>
        <time>2021-07-04T14:26:41Z</time>
      </trkpt>
      <trkpt lat="44.20659" lon="4.53935">
        <ele>104</ele>
        <time>2021-07-04T14:26:54Z</time>
      </trkpt>
      <trkpt lat="44.20702" lon="4.53921">
        <ele>106</ele>
        <time>2021-07-04T14:27:05Z</time>
      </trkpt>
      <trkpt lat="44.2075" lon="4.53909">
        <ele>108</ele>
        <time>2021-07-04T14:27:16Z</time>
      </trkpt>
      <trkpt lat="44.2079" lon="4.53905">
        <ele>109</ele>
        <time>2021-07-04T14:27:25Z</time>
      </trkpt>
      <trkpt lat="44.20795" lon="4.53901">
        <ele>110</ele>
        <time>2021-07-04T14:27:27Z</time>
      </trkpt>
      <trkpt lat="44.20792" lon="4.53891">
        <ele>109</ele>
        <time>2021-07-04T14:27:29Z</time>
      </trkpt>
      <trkpt lat="44.20795" lon="4.53901">
        <ele>110</ele>
        <time>2021-07-04T14:27:30Z</time>
      </trkpt>
      <trkpt lat="44.20808" lon="4.53897">
        <ele>110</ele>
        <time>2021-07-04T14:27:34Z</time>
      </trkpt>
      <trkpt lat="44.20815" lon="4.53889">
        <ele>110</ele>
        <time>2021-07-04T14:27:36Z</time>
      </trkpt>
      <trkpt lat="44.20838" lon="4.5385">
        <ele>111</ele>
        <time>2021-07-04T14:27:44Z</time>
      </trkpt>
      <trkpt lat="44.20905" lon="4.53729">
        <ele>110</ele>
        <time>2021-07-04T14:28:10Z</time>
      </trkpt>
      <trkpt lat="44.21018" lon="4.53648">
        <ele>109</ele>
        <time>2021-07-04T14:28:39Z</time>
      </trkpt>
      <trkpt lat="44.21125" lon="4.53536">
        <ele>103</ele>
        <time>2021-07-04T14:29:11Z</time>
      </trkpt>
      <trkpt lat="44.2113" lon="4.53521">
        <ele>102</ele>
        <time>2021-07-04T14:29:13Z</time>
      </trkpt>
      <trkpt lat="44.2117" lon="4.53442">
        <ele>101</ele>
        <time>2021-07-04T14:29:30Z</time>
      </trkpt>
      <trkpt lat="44.21173" lon="4.53422">
        <ele>101</ele>
        <time>2021-07-04T14:29:33Z</time>
      </trkpt>
      <trkpt lat="44.21178" lon="4.53331">
        <ele>101</ele>
        <time>2021-07-04T14:29:48Z</time>
      </trkpt>
      <trkpt lat="44.21218" lon="4.53165">
        <ele>103</ele>
        <time>2021-07-04T14:30:18Z</time>
      </trkpt>
      <trkpt lat="44.21122" lon="4.53129">
        <ele>96</ele>
        <time>2021-07-04T14:30:41Z</time>
      </trkpt>
      <trkpt lat="44.21124" lon="4.53129">
        <ele>96</ele>
        <time>2021-07-04T14:30:41Z</time>
      </trkpt>
      <trkpt lat="44.21151" lon="4.53062">
        <ele>98</ele>
        <time>2021-07-04T14:30:54Z</time>
      </trkpt>
      <trkpt lat="44.21169" lon="4.53007">
        <ele>97</ele>
        <time>2021-07-04T14:31:04Z</time>
      </trkpt>
      <trkpt lat="44.21195" lon="4.52963">
        <ele>95</ele>
        <time>2021-07-04T14:31:14Z</time>
      </trkpt>
      <trkpt lat="44.21213" lon="4.52912">
        <ele>91</ele>
        <time>2021-07-04T14:31:23Z</time>
      </trkpt>
      <trkpt lat="44.21216" lon="4.52913">
        <ele>91</ele>
        <time>2021-07-04T14:31:24Z</time>
      </trkpt>
      <trkpt lat="44.21219" lon="4.5291">
        <ele>91</ele>
        <time>2021-07-04T14:31:25Z</time>
      </trkpt>
      <trkpt lat="44.21249" lon="4.52929">
        <ele>93</ele>
        <time>2021-07-04T14:31:33Z</time>
      </trkpt>
      <trkpt lat="44.21281" lon="4.52928">
        <ele>92</ele>
        <time>2021-07-04T14:31:40Z</time>
      </trkpt>
      <trkpt lat="44.21289" lon="4.52922">
        <ele>91</ele>
        <time>2021-07-04T14:31:42Z</time>
      </trkpt>
      <trkpt lat="44.21296" lon="4.52914">
        <ele>91</ele>
        <time>2021-07-04T14:31:44Z</time>
      </trkpt>
      <trkpt lat="44.21308" lon="4.52892">
        <ele>90</ele>
        <time>2021-07-04T14:31:49Z</time>
      </trkpt>
      <trkpt lat="44.21329" lon="4.52832">
        <ele>90</ele>
        <time>2021-07-04T14:32:00Z</time>
      </trkpt>
      <trkpt lat="44.21361" lon="4.52723">
        <ele>90</ele>
        <time>2021-07-04T14:32:20Z</time>
      </trkpt>
      <trkpt lat="44.2137" lon="4.52717">
        <ele>90</ele>
        <time>2021-07-04T14:32:22Z</time>
      </trkpt>
      <trkpt lat="44.21385" lon="4.52717">
        <ele>90</ele>
        <time>2021-07-04T14:32:26Z</time>
      </trkpt>
      <trkpt lat="44.21427" lon="4.52738">
        <ele>91</ele>
        <time>2021-07-04T14:32:36Z</time>
      </trkpt>
      <trkpt lat="44.21436" lon="4.52737">
        <ele>91</ele>
        <time>2021-07-04T14:32:38Z</time>
      </trkpt>
      <trkpt lat="44.21512" lon="4.52679">
        <ele>92</ele>
        <time>2021-07-04T14:32:58Z</time>
      </trkpt>
      <trkpt lat="44.21572" lon="4.52624">
        <ele>93</ele>
        <time>2021-07-04T14:33:15Z</time>
      </trkpt>
      <trkpt lat="44.21526" lon="4.52555">
        <ele>91</ele>
        <time>2021-07-04T14:33:31Z</time>
      </trkpt>
      <trkpt lat="44.21516" lon="4.5251">
        <ele>90</ele>
        <time>2021-07-04T14:33:39Z</time>
      </trkpt>
      <trkpt lat="44.21515" lon="4.52504">
        <ele>90</ele>
        <time>2021-07-04T14:33:40Z</time>
      </trkpt>
      <trkpt lat="44.21529" lon="4.524">
        <ele>87</ele>
        <time>2021-07-04T14:33:58Z</time>
      </trkpt>
      <trkpt lat="44.21546" lon="4.52307">
        <ele>87</ele>
        <time>2021-07-04T14:34:14Z</time>
      </trkpt>
      <trkpt lat="44.21572" lon="4.52245">
        <ele>88</ele>
        <time>2021-07-04T14:34:26Z</time>
      </trkpt>
      <trkpt lat="44.21588" lon="4.52229">
        <ele>87</ele>
        <time>2021-07-04T14:34:30Z</time>
      </trkpt>
      <trkpt lat="44.21603" lon="4.52203">
        <ele>85</ele>
        <time>2021-07-04T14:34:36Z</time>
      </trkpt>
      <trkpt lat="44.2161" lon="4.52174">
        <ele>83</ele>
        <time>2021-07-04T14:34:41Z</time>
      </trkpt>
      <trkpt lat="44.21643" lon="4.52093">
        <ele>83</ele>
        <time>2021-07-04T14:34:57Z</time>
      </trkpt>
      <trkpt lat="44.21683" lon="4.51985">
        <ele>87</ele>
        <time>2021-07-04T14:35:17Z</time>
      </trkpt>
      <trkpt lat="44.21694" lon="4.51862">
        <ele>86</ele>
        <time>2021-07-04T14:35:38Z</time>
      </trkpt>
      <trkpt lat="44.21633" lon="4.51807">
        <ele>81</ele>
        <time>2021-07-04T14:35:55Z</time>
      </trkpt>
      <trkpt lat="44.21521" lon="4.5184">
        <ele>78</ele>
        <time>2021-07-04T14:36:21Z</time>
      </trkpt>
      <trkpt lat="44.21529" lon="4.51692">
        <ele>73</ele>
        <time>2021-07-04T14:36:46Z</time>
      </trkpt>
      <trkpt lat="44.21536" lon="4.51679">
        <ele>72</ele>
        <time>2021-07-04T14:36:49Z</time>
      </trkpt>
      <trkpt lat="44.21571" lon="4.51643">
        <ele>72</ele>
        <time>2021-07-04T14:36:59Z</time>
      </trkpt>
      <trkpt lat="44.21576" lon="4.5163">
        <ele>72</ele>
        <time>2021-07-04T14:37:02Z</time>
      </trkpt>
      <trkpt lat="44.21578" lon="4.5161">
        <ele>72</ele>
        <time>2021-07-04T14:37:05Z</time>
      </trkpt>
      <trkpt lat="44.21577" lon="4.51498">
        <ele>82</ele>
        <time>2021-07-04T14:37:24Z</time>
      </trkpt>
      <trkpt lat="44.21569" lon="4.51492">
        <ele>83</ele>
        <time>2021-07-04T14:37:26Z</time>
      </trkpt>
      <trkpt lat="44.21526" lon="4.51476">
        <ele>82</ele>
        <time>2021-07-04T14:37:36Z</time>
      </trkpt>
      <trkpt lat="44.21521" lon="4.51466">
        <ele>83</ele>
        <time>2021-07-04T14:37:38Z</time>
      </trkpt>
      <trkpt lat="44.21517" lon="4.51374">
        <ele>90</ele>
        <time>2021-07-04T14:37:54Z</time>
      </trkpt>
      <trkpt lat="44.21509" lon="4.51378">
        <ele>89</ele>
        <time>2021-07-04T14:37:56Z</time>
      </trkpt>
      <trkpt lat="44.21527" lon="4.51367">
        <ele>92</ele>
        <time>2021-07-04T14:38:00Z</time>
      </trkpt>
      <trkpt lat="44.21538" lon="4.51355">
        <ele>95</ele>
        <time>2021-07-04T14:38:03Z</time>
      </trkpt>
      <trkpt lat="44.21547" lon="4.51355">
        <ele>96</ele>
        <time>2021-07-04T14:38:06Z</time>
      </trkpt>
      <trkpt lat="44.21563" lon="4.51342">
        <ele>100</ele>
        <time>2021-07-04T14:38:10Z</time>
      </trkpt>
      <trkpt lat="44.21604" lon="4.51298">
        <ele>106</ele>
        <time>2021-07-04T14:38:22Z</time>
      </trkpt>
      <trkpt lat="44.21628" lon="4.51277">
        <ele>109</ele>
        <time>2021-07-04T14:38:29Z</time>
      </trkpt>
      <trkpt lat="44.21649" lon="4.51264">
        <ele>111</ele>
        <time>2021-07-04T14:38:34Z</time>
      </trkpt>
      <trkpt lat="44.21677" lon="4.51251">
        <ele>113</ele>
        <time>2021-07-04T14:38:41Z</time>
      </trkpt>
      <trkpt lat="44.21682" lon="4.51241">
        <ele>112</ele>
        <time>2021-07-04T14:38:43Z</time>
      </trkpt>
      <trkpt lat="44.21751" lon="4.51194">
        <ele>111</ele>
        <time>2021-07-04T14:39:01Z</time>
      </trkpt>
      <trkpt lat="44.21769" lon="4.51176">
        <ele>113</ele>
        <time>2021-07-04T14:39:06Z</time>
      </trkpt>
      <trkpt lat="44.21766" lon="4.51144">
        <ele>112</ele>
        <time>2021-07-04T14:39:11Z</time>
      </trkpt>
      <trkpt lat="44.21768" lon="4.51133">
        <ele>112</ele>
        <time>2021-07-04T14:39:13Z</time>
      </trkpt>
      <trkpt lat="44.21786" lon="4.51083">
        <ele>112</ele>
        <time>2021-07-04T14:39:23Z</time>
      </trkpt>
      <trkpt lat="44.21789" lon="4.51065">
        <ele>113</ele>
        <time>2021-07-04T14:39:26Z</time>
      </trkpt>
      <trkpt lat="44.21781" lon="4.51045">
        <ele>113</ele>
        <time>2021-07-04T14:39:30Z</time>
      </trkpt>
      <trkpt lat="44.21768" lon="4.51039">
        <ele>113</ele>
        <time>2021-07-04T14:39:33Z</time>
      </trkpt>
      <trkpt lat="44.21746" lon="4.51034">
        <ele>113</ele>
        <time>2021-07-04T14:39:38Z</time>
      </trkpt>
      <trkpt lat="44.21725" lon="4.51036">
        <ele>112</ele>
        <time>2021-07-04T14:39:43Z</time>
      </trkpt>
      <trkpt lat="44.21625" lon="4.50991">
        <ele>114</ele>
        <time>2021-07-04T14:40:07Z</time>
      </trkpt>
      <trkpt lat="44.21539" lon="4.50924">
        <ele>119</ele>
        <time>2021-07-04T14:40:30Z</time>
      </trkpt>
      <trkpt lat="44.21525" lon="4.5091">
        <ele>119</ele>
        <time>2021-07-04T14:40:34Z</time>
      </trkpt>
      <trkpt lat="44.21495" lon="4.50928">
        <ele>116</ele>
        <time>2021-07-04T14:40:42Z</time>
      </trkpt>
      <trkpt lat="44.21472" lon="4.50879">
        <ele>115</ele>
        <time>2021-07-04T14:40:52Z</time>
      </trkpt>
      <trkpt lat="44.21471" lon="4.50802">
        <ele>117</ele>
        <time>2021-07-04T14:41:05Z</time>
      </trkpt>
      <trkpt lat="44.21495" lon="4.50763">
        <ele>120</ele>
        <time>2021-07-04T14:41:13Z</time>
      </trkpt>
      <trkpt lat="44.21491" lon="4.50765">
        <ele>120</ele>
        <time>2021-07-04T14:41:14Z</time>
      </trkpt>
      <trkpt lat="44.21458" lon="4.50739">
        <ele>117</ele>
        <time>2021-07-04T14:41:23Z</time>
      </trkpt>
      <trkpt lat="44.21422" lon="4.50693">
        <ele>117</ele>
        <time>2021-07-04T14:41:35Z</time>
      </trkpt>
      <trkpt lat="44.21368" lon="4.50638">
        <ele>117</ele>
        <time>2021-07-04T14:41:50Z</time>
      </trkpt>
      <trkpt lat="44.21328" lon="4.50617">
        <ele>115</ele>
        <time>2021-07-04T14:42:00Z</time>
      </trkpt>
      <trkpt lat="44.21295" lon="4.50596">
        <ele>114</ele>
        <time>2021-07-04T14:42:09Z</time>
      </trkpt>
      <trkpt lat="44.21278" lon="4.50573">
        <ele>115</ele>
        <time>2021-07-04T14:42:14Z</time>
      </trkpt>
      <trkpt lat="44.21232" lon="4.50493">
        <ele>117</ele>
        <time>2021-07-04T14:42:31Z</time>
      </trkpt>
      <trkpt lat="44.21214" lon="4.50426">
        <ele>118</ele>
        <time>2021-07-04T14:42:43Z</time>
      </trkpt>
      <trkpt lat="44.21219" lon="4.50427">
        <ele>119</ele>
        <time>2021-07-04T14:42:45Z</time>
      </trkpt>
      <trkpt lat="44.2122" lon="4.50355">
        <ele>117</ele>
        <time>2021-07-04T14:42:57Z</time>
      </trkpt>
      <trkpt lat="44.21244" lon="4.50277">
        <ele>116</ele>
        <time>2021-07-04T14:43:11Z</time>
      </trkpt>
      <trkpt lat="44.21249" lon="4.50241">
        <ele>114</ele>
        <time>2021-07-04T14:43:17Z</time>
      </trkpt>
      <trkpt lat="44.2125" lon="4.50215">
        <ele>113</ele>
        <time>2021-07-04T14:43:21Z</time>
      </trkpt>
      <trkpt lat="44.21259" lon="4.50197">
        <ele>114</ele>
        <time>2021-07-04T14:43:25Z</time>
      </trkpt>
      <trkpt lat="44.21294" lon="4.50147">
        <ele>116</ele>
        <time>2021-07-04T14:43:37Z</time>
      </trkpt>
      <trkpt lat="44.21295" lon="4.50139">
        <ele>116</ele>
        <time>2021-07-04T14:43:38Z</time>
      </trkpt>
      <trkpt lat="44.21283" lon="4.50138">
        <ele>114</ele>
        <time>2021-07-04T14:43:41Z</time>
      </trkpt>
      <trkpt lat="44.21295" lon="4.50139">
        <ele>116</ele>
        <time>2021-07-04T14:43:44Z</time>
      </trkpt>
      <trkpt lat="44.21296" lon="4.50119">
        <ele>115</ele>
        <time>2021-07-04T14:43:47Z</time>
      </trkpt>
      <trkpt lat="44.21305" lon="4.50101">
        <ele>116</ele>
        <time>2021-07-04T14:43:51Z</time>
      </trkpt>
      <trkpt lat="44.21321" lon="4.50079">
        <ele>118</ele>
        <time>2021-07-04T14:43:56Z</time>
      </trkpt>
      <trkpt lat="44.21322" lon="4.50068">
        <ele>118</ele>
        <time>2021-07-04T14:43:58Z</time>
      </trkpt>
      <trkpt lat="44.21302" lon="4.50036">
        <ele>112</ele>
        <time>2021-07-04T14:44:05Z</time>
      </trkpt>
      <trkpt lat="44.21315" lon="4.4995">
        <ele>112</ele>
        <time>2021-07-04T14:44:20Z</time>
      </trkpt>
      <trkpt lat="44.21361" lon="4.49847">
        <ele>119</ele>
        <time>2021-07-04T14:44:40Z</time>
      </trkpt>
      <trkpt lat="44.21373" lon="4.4977">
        <ele>118</ele>
        <time>2021-07-04T14:44:53Z</time>
      </trkpt>
      <trkpt lat="44.21373" lon="4.49741">
        <ele>117</ele>
        <time>2021-07-04T14:44:58Z</time>
      </trkpt>
      <trkpt lat="44.21362" lon="4.49741">
        <ele>114</ele>
        <time>2021-07-04T14:45:01Z</time>
      </trkpt>
      <trkpt lat="44.21373" lon="4.49741">
        <ele>117</ele>
        <time>2021-07-04T14:45:03Z</time>
      </trkpt>
      <trkpt lat="44.21377" lon="4.49726">
        <ele>117</ele>
        <time>2021-07-04T14:45:06Z</time>
      </trkpt>
      <trkpt lat="44.21414" lon="4.49679">
        <ele>124</ele>
        <time>2021-07-04T14:45:17Z</time>
      </trkpt>
      <trkpt lat="44.21456" lon="4.49617">
        <ele>129</ele>
        <time>2021-07-04T14:45:32Z</time>
      </trkpt>
      <trkpt lat="44.21459" lon="4.4961">
        <ele>129</ele>
        <time>2021-07-04T14:45:33Z</time>
      </trkpt>
      <trkpt lat="44.2146" lon="4.49573">
        <ele>126</ele>
        <time>2021-07-04T14:45:39Z</time>
      </trkpt>
      <trkpt lat="44.21472" lon="4.49516">
        <ele>121</ele>
        <time>2021-07-04T14:45:49Z</time>
      </trkpt>
      <trkpt lat="44.21487" lon="4.49526">
        <ele>123</ele>
        <time>2021-07-04T14:45:53Z</time>
      </trkpt>
      <trkpt lat="44.21514" lon="4.49531">
        <ele>126</ele>
        <time>2021-07-04T14:45:59Z</time>
      </trkpt>
      <trkpt lat="44.21528" lon="4.49526">
        <ele>126</ele>
        <time>2021-07-04T14:46:03Z</time>
      </trkpt>
      <trkpt lat="44.21537" lon="4.4952">
        <ele>126</ele>
        <time>2021-07-04T14:46:05Z</time>
      </trkpt>
      <trkpt lat="44.21555" lon="4.495">
        <ele>125</ele>
        <time>2021-07-04T14:46:11Z</time>
      </trkpt>
      <trkpt lat="44.21561" lon="4.49487">
        <ele>124</ele>
        <time>2021-07-04T14:46:13Z</time>
      </trkpt>
      <trkpt lat="44.21591" lon="4.4938">
        <ele>126</ele>
        <time>2021-07-04T14:46:32Z</time>
      </trkpt>
      <trkpt lat="44.2158" lon="4.49371">
        <ele>124</ele>
        <time>2021-07-04T14:46:35Z</time>
      </trkpt>
      <trkpt lat="44.21591" lon="4.4938">
        <ele>126</ele>
        <time>2021-07-04T14:46:38Z</time>
      </trkpt>
      <trkpt lat="44.21601" lon="4.49365">
        <ele>129</ele>
        <time>2021-07-04T14:46:42Z</time>
      </trkpt>
      <trkpt lat="44.21623" lon="4.49347">
        <ele>133</ele>
        <time>2021-07-04T14:46:48Z</time>
      </trkpt>
      <trkpt lat="44.21652" lon="4.49336">
        <ele>139</ele>
        <time>2021-07-04T14:46:55Z</time>
      </trkpt>
      <trkpt lat="44.21694" lon="4.49311">
        <ele>144</ele>
        <time>2021-07-04T14:47:05Z</time>
      </trkpt>
      <trkpt lat="44.21705" lon="4.49308">
        <ele>145</ele>
        <time>2021-07-04T14:47:08Z</time>
      </trkpt>
      <trkpt lat="44.21733" lon="4.49307">
        <ele>149</ele>
        <time>2021-07-04T14:47:15Z</time>
      </trkpt>
      <trkpt lat="44.21764" lon="4.49316">
        <ele>155</ele>
        <time>2021-07-04T14:47:22Z</time>
      </trkpt>
      <trkpt lat="44.21774" lon="4.49316">
        <ele>157</ele>
        <time>2021-07-04T14:47:24Z</time>
      </trkpt>
      <trkpt lat="44.21781" lon="4.49314">
        <ele>158</ele>
        <time>2021-07-04T14:47:26Z</time>
      </trkpt>
      <trkpt lat="44.21823" lon="4.49288">
        <ele>159</ele>
        <time>2021-07-04T14:47:37Z</time>
      </trkpt>
      <trkpt lat="44.21794" lon="4.49204">
        <ele>145</ele>
        <time>2021-07-04T14:47:52Z</time>
      </trkpt>
      <trkpt lat="44.21741" lon="4.49113">
        <ele>132</ele>
        <time>2021-07-04T14:48:12Z</time>
      </trkpt>
      <trkpt lat="44.21817" lon="4.48982">
        <ele>119</ele>
        <time>2021-07-04T14:48:40Z</time>
      </trkpt>
      <trkpt lat="44.21872" lon="4.48929">
        <ele>109</ele>
        <time>2021-07-04T14:48:56Z</time>
      </trkpt>
      <trkpt lat="44.21888" lon="4.48844">
        <ele>101</ele>
        <time>2021-07-04T14:49:10Z</time>
      </trkpt>
      <trkpt lat="44.21851" lon="4.48746">
        <ele>92</ele>
        <time>2021-07-04T14:49:29Z</time>
      </trkpt>
      <trkpt lat="44.21872" lon="4.48653">
        <ele>90</ele>
        <time>2021-07-04T14:49:45Z</time>
      </trkpt>
      <trkpt lat="44.21829" lon="4.4864">
        <ele>92</ele>
        <time>2021-07-04T14:49:56Z</time>
      </trkpt>
      <trkpt lat="44.21813" lon="4.48588">
        <ele>89</ele>
        <time>2021-07-04T14:50:05Z</time>
      </trkpt>
      <trkpt lat="44.21816" lon="4.48593">
        <ele>90</ele>
        <time>2021-07-04T14:50:06Z</time>
      </trkpt>
    </trkseg>
  </trk>
</gpx>